<?xml version="1.0" encoding="utf-8"?>
<gpx xmlns:xsi="http://www.w3.org/2001/XMLSchema-instance" xmlns:xsd="http://www.w3.org/2001/XMLSchema" version="1.1" creator="Shapelink.com" xmlns="http://www.topografix.com/GPX/1/1" xmlns:gpxtpx="http://www.garmin.com/xmlschemas/TrackPointExtension/v1">
  <metadata>
    <name>Ejecutar 5.88 km, 2019-11-17</name>
    <desc></desc>
    <author><name>Per Rooth</name></author> 
    <time>2019-11-17T11:47:11Z</time>
  </metadata>
  <trk>
    <name>Ejecutar 5.88 km, 2019-11-17</name>
    <trkseg>
      <trkpt lat="56.298974609696" lon="13.372802778028">
        <ele>82.4</ele>
        <time>2019-11-17T11:47:11Z</time>
      </trkpt>
      <trkpt lat="56.298844941703" lon="13.372871844884">
        <ele>82.4</ele>
        <time>2019-11-17T11:47:20Z</time>
      </trkpt>
      <trkpt lat="56.298623743362" lon="13.37291157509">
        <ele>82.6</ele>
        <time>2019-11-17T11:47:28Z</time>
      </trkpt>
      <trkpt lat="56.298429953834" lon="13.373020036876">
        <ele>83</ele>
        <time>2019-11-17T11:47:34Z</time>
      </trkpt>
      <trkpt lat="56.29821906523" lon="13.373115841993">
        <ele>82.8</ele>
        <time>2019-11-17T11:47:40Z</time>
      </trkpt>
      <trkpt lat="56.298046649547" lon="13.373066556421">
        <ele>83.6</ele>
        <time>2019-11-17T11:47:46Z</time>
      </trkpt>
      <trkpt lat="56.297995855233" lon="13.373033196459">
        <ele>84</ele>
        <time>2019-11-17T11:47:48Z</time>
      </trkpt>
      <trkpt lat="56.297911281862" lon="13.372945605604">
        <ele>85</ele>
        <time>2019-11-17T11:47:52Z</time>
      </trkpt>
      <trkpt lat="56.297882783402" lon="13.372903109371">
        <ele>85.4</ele>
        <time>2019-11-17T11:47:53Z</time>
      </trkpt>
      <trkpt lat="56.297833833106" lon="13.372818619819">
        <ele>86.4</ele>
        <time>2019-11-17T11:47:56Z</time>
      </trkpt>
      <trkpt lat="56.29780835213" lon="13.372758270139">
        <ele>87.6</ele>
        <time>2019-11-17T11:47:58Z</time>
      </trkpt>
      <trkpt lat="56.297758479825" lon="13.372687862179">
        <ele>88.8</ele>
        <time>2019-11-17T11:48:01Z</time>
      </trkpt>
      <trkpt lat="56.297716654144" lon="13.372638408969">
        <ele>89.8</ele>
        <time>2019-11-17T11:48:03Z</time>
      </trkpt>
      <trkpt lat="56.29769938743" lon="13.372617873314">
        <ele>90.2</ele>
        <time>2019-11-17T11:48:04Z</time>
      </trkpt>
      <trkpt lat="56.297637529008" lon="13.372559116195">
        <ele>91.6</ele>
        <time>2019-11-17T11:48:07Z</time>
      </trkpt>
      <trkpt lat="56.297563768288" lon="13.372438668292">
        <ele>92.6</ele>
        <time>2019-11-17T11:48:10Z</time>
      </trkpt>
      <trkpt lat="56.297551949809" lon="13.372407403805">
        <ele>93</ele>
        <time>2019-11-17T11:48:11Z</time>
      </trkpt>
      <trkpt lat="56.297527809937" lon="13.372304641711">
        <ele>94</ele>
        <time>2019-11-17T11:48:14Z</time>
      </trkpt>
      <trkpt lat="56.297512135784" lon="13.372295170164">
        <ele>94.4</ele>
        <time>2019-11-17T11:48:15Z</time>
      </trkpt>
      <trkpt lat="56.297506268454" lon="13.372190815509">
        <ele>95.2</ele>
        <time>2019-11-17T11:48:18Z</time>
      </trkpt>
      <trkpt lat="56.297417252676" lon="13.372057124204">
        <ele>96.4</ele>
        <time>2019-11-17T11:48:23Z</time>
      </trkpt>
      <trkpt lat="56.297384060352" lon="13.371949249151">
        <ele>97.4</ele>
        <time>2019-11-17T11:48:26Z</time>
      </trkpt>
      <trkpt lat="56.297354807521" lon="13.371848498713">
        <ele>98.4</ele>
        <time>2019-11-17T11:48:29Z</time>
      </trkpt>
      <trkpt lat="56.297341228843" lon="13.371814552018">
        <ele>98.8</ele>
        <time>2019-11-17T11:48:30Z</time>
      </trkpt>
      <trkpt lat="56.297321447559" lon="13.371699468531">
        <ele>99.4</ele>
        <time>2019-11-17T11:48:33Z</time>
      </trkpt>
      <trkpt lat="56.297310215813" lon="13.371677843229">
        <ele>99.6</ele>
        <time>2019-11-17T11:48:34Z</time>
      </trkpt>
      <trkpt lat="56.297237712378" lon="13.371585390872">
        <ele>99.4</ele>
        <time>2019-11-17T11:48:38Z</time>
      </trkpt>
      <trkpt lat="56.297033948389" lon="13.371515904921">
        <ele>99.4</ele>
        <time>2019-11-17T11:48:44Z</time>
      </trkpt>
      <trkpt lat="56.297011484897" lon="13.371511211057">
        <ele>99.4</ele>
        <time>2019-11-17T11:48:46Z</time>
      </trkpt>
      <trkpt lat="56.296921798567" lon="13.371506265736">
        <ele>99.8</ele>
        <time>2019-11-17T11:48:50Z</time>
      </trkpt>
      <trkpt lat="56.296849378951" lon="13.371428649342">
        <ele>100.8</ele>
        <time>2019-11-17T11:48:54Z</time>
      </trkpt>
      <trkpt lat="56.296807720908" lon="13.371308620534">
        <ele>102</ele>
        <time>2019-11-17T11:48:58Z</time>
      </trkpt>
      <trkpt lat="56.296755250214" lon="13.371250450148">
        <ele>102.2</ele>
        <time>2019-11-17T11:49:01Z</time>
      </trkpt>
      <trkpt lat="56.296742090631" lon="13.371186412432">
        <ele>102.6</ele>
        <time>2019-11-17T11:49:03Z</time>
      </trkpt>
      <trkpt lat="56.296711664334" lon="13.371030844368">
        <ele>103</ele>
        <time>2019-11-17T11:49:07Z</time>
      </trkpt>
      <trkpt lat="56.29669942676" lon="13.370929758654">
        <ele>103.8</ele>
        <time>2019-11-17T11:49:10Z</time>
      </trkpt>
      <trkpt lat="56.296704204443" lon="13.370891034276">
        <ele>104.2</ele>
        <time>2019-11-17T11:49:11Z</time>
      </trkpt>
      <trkpt lat="56.296702863339" lon="13.370852226079">
        <ele>104.4</ele>
        <time>2019-11-17T11:49:12Z</time>
      </trkpt>
      <trkpt lat="56.296659696554" lon="13.370759773722">
        <ele>105.2</ele>
        <time>2019-11-17T11:49:15Z</time>
      </trkpt>
      <trkpt lat="56.296625498402" lon="13.37065852037">
        <ele>106.6</ele>
        <time>2019-11-17T11:49:19Z</time>
      </trkpt>
      <trkpt lat="56.296605130385" lon="13.370544275073">
        <ele>107.2</ele>
        <time>2019-11-17T11:49:23Z</time>
      </trkpt>
      <trkpt lat="56.296590042965" lon="13.370464563204">
        <ele>107.6</ele>
        <time>2019-11-17T11:49:26Z</time>
      </trkpt>
      <trkpt lat="56.296594401553" lon="13.370438579314">
        <ele>107.8</ele>
        <time>2019-11-17T11:49:27Z</time>
      </trkpt>
      <trkpt lat="56.296596664666" lon="13.370405806085">
        <ele>108.2</ele>
        <time>2019-11-17T11:49:28Z</time>
      </trkpt>
      <trkpt lat="56.296584091816" lon="13.370334057021">
        <ele>108.8</ele>
        <time>2019-11-17T11:49:30Z</time>
      </trkpt>
      <trkpt lat="56.29658040378" lon="13.370299439774">
        <ele>109.2</ele>
        <time>2019-11-17T11:49:31Z</time>
      </trkpt>
      <trkpt lat="56.296568250025" lon="13.370142698244">
        <ele>109.6</ele>
        <time>2019-11-17T11:49:36Z</time>
      </trkpt>
      <trkpt lat="56.296548887836" lon="13.3701279461">
        <ele>110</ele>
        <time>2019-11-17T11:49:38Z</time>
      </trkpt>
      <trkpt lat="56.296547127637" lon="13.370096430156">
        <ele>110</ele>
        <time>2019-11-17T11:49:41Z</time>
      </trkpt>
      <trkpt lat="56.296553078786" lon="13.370060136529">
        <ele>110</ele>
        <time>2019-11-17T11:49:43Z</time>
      </trkpt>
      <trkpt lat="56.296563388523" lon="13.370003223428">
        <ele>110.2</ele>
        <time>2019-11-17T11:49:46Z</time>
      </trkpt>
      <trkpt lat="56.296586690205" lon="13.369911944537">
        <ele>110.2</ele>
        <time>2019-11-17T11:49:49Z</time>
      </trkpt>
      <trkpt lat="56.296679729295" lon="13.369783785286">
        <ele>111.2</ele>
        <time>2019-11-17T11:49:55Z</time>
      </trkpt>
      <trkpt lat="56.29669942676" lon="13.369727207461">
        <ele>112</ele>
        <time>2019-11-17T11:49:57Z</time>
      </trkpt>
      <trkpt lat="56.296704958814" lon="13.369705330702">
        <ele>112.4</ele>
        <time>2019-11-17T11:49:58Z</time>
      </trkpt>
      <trkpt lat="56.296763045381" lon="13.369506931129">
        <ele>113.2</ele>
        <time>2019-11-17T11:50:05Z</time>
      </trkpt>
      <trkpt lat="56.296770337634" lon="13.36949343627">
        <ele>113.4</ele>
        <time>2019-11-17T11:50:06Z</time>
      </trkpt>
      <trkpt lat="56.296776959335" lon="13.369472649158">
        <ele>113.6</ele>
        <time>2019-11-17T11:50:07Z</time>
      </trkpt>
      <trkpt lat="56.296783413398" lon="13.369439456834">
        <ele>113.8</ele>
        <time>2019-11-17T11:50:09Z</time>
      </trkpt>
      <trkpt lat="56.296800344836" lon="13.369314817981">
        <ele>114.4</ele>
        <time>2019-11-17T11:50:12Z</time>
      </trkpt>
      <trkpt lat="56.296799339008" lon="13.369277350888">
        <ele>114.8</ele>
        <time>2019-11-17T11:50:13Z</time>
      </trkpt>
      <trkpt lat="56.296791879117" lon="13.36920928986">
        <ele>115.6</ele>
        <time>2019-11-17T11:50:15Z</time>
      </trkpt>
      <trkpt lat="56.296795483334" lon="13.369192442241">
        <ele>116</ele>
        <time>2019-11-17T11:50:16Z</time>
      </trkpt>
      <trkpt lat="56.296823143604" lon="13.369132679294">
        <ele>116.4</ele>
        <time>2019-11-17T11:50:20Z</time>
      </trkpt>
      <trkpt lat="56.296818952654" lon="13.369051123407">
        <ele>116.6</ele>
        <time>2019-11-17T11:50:24Z</time>
      </trkpt>
      <trkpt lat="56.296863125267" lon="13.368959006326">
        <ele>117.2</ele>
        <time>2019-11-17T11:50:27Z</time>
      </trkpt>
      <trkpt lat="56.296903023111" lon="13.368922461242">
        <ele>117.8</ele>
        <time>2019-11-17T11:50:29Z</time>
      </trkpt>
      <trkpt lat="56.296998492952" lon="13.368803773538">
        <ele>119</ele>
        <time>2019-11-17T11:50:34Z</time>
      </trkpt>
      <trkpt lat="56.297095555354" lon="13.368642086687">
        <ele>120</ele>
        <time>2019-11-17T11:50:39Z</time>
      </trkpt>
      <trkpt lat="56.297130675515" lon="13.368546868303">
        <ele>121.2</ele>
        <time>2019-11-17T11:50:42Z</time>
      </trkpt>
      <trkpt lat="56.297161604726" lon="13.368514095074">
        <ele>121.6</ele>
        <time>2019-11-17T11:50:43Z</time>
      </trkpt>
      <trkpt lat="56.297173926119" lon="13.368478052904">
        <ele>122.2</ele>
        <time>2019-11-17T11:50:44Z</time>
      </trkpt>
      <trkpt lat="56.297193455946" lon="13.368455086498">
        <ele>122.6</ele>
        <time>2019-11-17T11:50:45Z</time>
      </trkpt>
      <trkpt lat="56.297238047654" lon="13.368387360746">
        <ele>123.2</ele>
        <time>2019-11-17T11:50:47Z</time>
      </trkpt>
      <trkpt lat="56.297258583309" lon="13.368369758756">
        <ele>123.4</ele>
        <time>2019-11-17T11:50:48Z</time>
      </trkpt>
      <trkpt lat="56.297440889634" lon="13.36830488285">
        <ele>123.8</ele>
        <time>2019-11-17T11:50:56Z</time>
      </trkpt>
      <trkpt lat="56.297541472434" lon="13.36824537136">
        <ele>123.8</ele>
        <time>2019-11-17T11:51:00Z</time>
      </trkpt>
      <trkpt lat="56.297721096551" lon="13.36818921263">
        <ele>122.8</ele>
        <time>2019-11-17T11:51:08Z</time>
      </trkpt>
      <trkpt lat="56.297814135641" lon="13.368169515165">
        <ele>122.2</ele>
        <time>2019-11-17T11:51:11Z</time>
      </trkpt>
      <trkpt lat="56.297972218275" lon="13.368004978468">
        <ele>121</ele>
        <time>2019-11-17T11:51:21Z</time>
      </trkpt>
      <trkpt lat="56.298000632916" lon="13.368023502467">
        <ele>119.8</ele>
        <time>2019-11-17T11:51:26Z</time>
      </trkpt>
      <trkpt lat="56.298097024766" lon="13.368007660676">
        <ele>119</ele>
        <time>2019-11-17T11:51:35Z</time>
      </trkpt>
      <trkpt lat="56.298123343932" lon="13.368014617653">
        <ele>119</ele>
        <time>2019-11-17T11:51:37Z</time>
      </trkpt>
      <trkpt lat="56.298144801596" lon="13.36800313445">
        <ele>118.8</ele>
        <time>2019-11-17T11:51:38Z</time>
      </trkpt>
      <trkpt lat="56.298160224292" lon="13.367983185528">
        <ele>118.6</ele>
        <time>2019-11-17T11:51:39Z</time>
      </trkpt>
      <trkpt lat="56.298176149902" lon="13.367914789224">
        <ele>117.6</ele>
        <time>2019-11-17T11:51:41Z</time>
      </trkpt>
      <trkpt lat="56.298191321141" lon="13.367844213626">
        <ele>117.2</ele>
        <time>2019-11-17T11:51:43Z</time>
      </trkpt>
      <trkpt lat="56.298270865372" lon="13.367633995574">
        <ele>116.6</ele>
        <time>2019-11-17T11:51:51Z</time>
      </trkpt>
      <trkpt lat="56.298288970276" lon="13.367587895124">
        <ele>116.6</ele>
        <time>2019-11-17T11:51:53Z</time>
      </trkpt>
      <trkpt lat="56.298328113749" lon="13.367509189083">
        <ele>116.6</ele>
        <time>2019-11-17T11:51:56Z</time>
      </trkpt>
      <trkpt lat="56.29835904296" lon="13.367483289012">
        <ele>116.8</ele>
        <time>2019-11-17T11:51:58Z</time>
      </trkpt>
      <trkpt lat="56.298453339335" lon="13.367418664563">
        <ele>116</ele>
        <time>2019-11-17T11:52:04Z</time>
      </trkpt>
      <trkpt lat="56.298601196051" lon="13.36720350119">
        <ele>116.2</ele>
        <time>2019-11-17T11:52:14Z</time>
      </trkpt>
      <trkpt lat="56.298656265134" lon="13.367070983351">
        <ele>116.6</ele>
        <time>2019-11-17T11:52:19Z</time>
      </trkpt>
      <trkpt lat="56.298730780225" lon="13.3670434069">
        <ele>117.8</ele>
        <time>2019-11-17T11:52:23Z</time>
      </trkpt>
      <trkpt lat="56.298824573686" lon="13.366981632297">
        <ele>116.6</ele>
        <time>2019-11-17T11:52:28Z</time>
      </trkpt>
      <trkpt lat="56.29890805741" lon="13.366920025332">
        <ele>116</ele>
        <time>2019-11-17T11:52:34Z</time>
      </trkpt>
      <trkpt lat="56.299023140897" lon="13.366877696737">
        <ele>115.6</ele>
        <time>2019-11-17T11:52:39Z</time>
      </trkpt>
      <trkpt lat="56.299046861674" lon="13.366864956249">
        <ele>115</ele>
        <time>2019-11-17T11:52:40Z</time>
      </trkpt>
      <trkpt lat="56.299081981835" lon="13.366851042295">
        <ele>114.2</ele>
        <time>2019-11-17T11:52:42Z</time>
      </trkpt>
      <trkpt lat="56.299114000693" lon="13.366865291525">
        <ele>113.2</ele>
        <time>2019-11-17T11:52:44Z</time>
      </trkpt>
      <trkpt lat="56.29917124907" lon="13.366867973733">
        <ele>112.2</ele>
        <time>2019-11-17T11:52:47Z</time>
      </trkpt>
      <trkpt lat="56.299223971221" lon="13.366837882712">
        <ele>110.8</ele>
        <time>2019-11-17T11:52:49Z</time>
      </trkpt>
      <trkpt lat="56.299246350894" lon="13.366794213013">
        <ele>109.6</ele>
        <time>2019-11-17T11:52:51Z</time>
      </trkpt>
      <trkpt lat="56.29927015549" lon="13.366720033198">
        <ele>109</ele>
        <time>2019-11-17T11:52:54Z</time>
      </trkpt>
      <trkpt lat="56.299317848501" lon="13.366641159519">
        <ele>109.6</ele>
        <time>2019-11-17T11:52:59Z</time>
      </trkpt>
      <trkpt lat="56.299329164066" lon="13.366590281386">
        <ele>109.6</ele>
        <time>2019-11-17T11:53:01Z</time>
      </trkpt>
      <trkpt lat="56.29940761865" lon="13.366385511569">
        <ele>109</ele>
        <time>2019-11-17T11:53:09Z</time>
      </trkpt>
      <trkpt lat="56.299420945871" lon="13.366368412493">
        <ele>108.8</ele>
        <time>2019-11-17T11:53:11Z</time>
      </trkpt>
      <trkpt lat="56.299472410737" lon="13.366302279302">
        <ele>108.6</ele>
        <time>2019-11-17T11:53:19Z</time>
      </trkpt>
      <trkpt lat="56.29951574516" lon="13.366243019269">
        <ele>109</ele>
        <time>2019-11-17T11:53:23Z</time>
      </trkpt>
      <trkpt lat="56.299546506733" lon="13.366213431162">
        <ele>108.6</ele>
        <time>2019-11-17T11:53:25Z</time>
      </trkpt>
      <trkpt lat="56.299563102895" lon="13.366186106168">
        <ele>108</ele>
        <time>2019-11-17T11:53:27Z</time>
      </trkpt>
      <trkpt lat="56.299589254423" lon="13.36616163102">
        <ele>107.8</ele>
        <time>2019-11-17T11:53:29Z</time>
      </trkpt>
      <trkpt lat="56.299626805335" lon="13.366119302425">
        <ele>107.4</ele>
        <time>2019-11-17T11:53:31Z</time>
      </trkpt>
      <trkpt lat="56.299635690149" lon="13.366108154498">
        <ele>107.4</ele>
        <time>2019-11-17T11:53:32Z</time>
      </trkpt>
      <trkpt lat="56.299667541369" lon="13.365972619175">
        <ele>106.8</ele>
        <time>2019-11-17T11:53:41Z</time>
      </trkpt>
      <trkpt lat="56.299672235233" lon="13.36594118705">
        <ele>106.8</ele>
        <time>2019-11-17T11:53:44Z</time>
      </trkpt>
      <trkpt lat="56.299686987377" lon="13.365895840971">
        <ele>106.6</ele>
        <time>2019-11-17T11:53:46Z</time>
      </trkpt>
      <trkpt lat="56.299715066742" lon="13.365840017517">
        <ele>106.6</ele>
        <time>2019-11-17T11:53:48Z</time>
      </trkpt>
      <trkpt lat="56.299771979843" lon="13.365728705885">
        <ele>106.4</ele>
        <time>2019-11-17T11:53:52Z</time>
      </trkpt>
      <trkpt lat="56.299788073091" lon="13.365727616238">
        <ele>106.2</ele>
        <time>2019-11-17T11:53:53Z</time>
      </trkpt>
      <trkpt lat="56.299801316493" lon="13.365721078356">
        <ele>106</ele>
        <time>2019-11-17T11:53:54Z</time>
      </trkpt>
      <trkpt lat="56.299843980364" lon="13.365662237418">
        <ele>105.2</ele>
        <time>2019-11-17T11:53:57Z</time>
      </trkpt>
      <trkpt lat="56.299863174915" lon="13.365632900768">
        <ele>104.4</ele>
        <time>2019-11-17T11:53:59Z</time>
      </trkpt>
      <trkpt lat="56.299876837412" lon="13.365628877456">
        <ele>104.2</ele>
        <time>2019-11-17T11:54:00Z</time>
      </trkpt>
      <trkpt lat="56.29990466532" lon="13.365599373168">
        <ele>103.2</ele>
        <time>2019-11-17T11:54:02Z</time>
      </trkpt>
      <trkpt lat="56.299916819075" lon="13.365587135594">
        <ele>102.8</ele>
        <time>2019-11-17T11:54:03Z</time>
      </trkpt>
      <trkpt lat="56.299959399127" lon="13.36552376843">
        <ele>102</ele>
        <time>2019-11-17T11:54:08Z</time>
      </trkpt>
      <trkpt lat="56.299983622818" lon="13.365554278546">
        <ele>102</ele>
        <time>2019-11-17T11:54:11Z</time>
      </trkpt>
      <trkpt lat="56.300031483467" lon="13.36558747087">
        <ele>102</ele>
        <time>2019-11-17T11:54:13Z</time>
      </trkpt>
      <trkpt lat="56.300078003012" lon="13.365608509439">
        <ele>101.6</ele>
        <time>2019-11-17T11:54:16Z</time>
      </trkpt>
      <trkpt lat="56.300124354919" lon="13.365568443957">
        <ele>101.2</ele>
        <time>2019-11-17T11:54:20Z</time>
      </trkpt>
      <trkpt lat="56.300226111185" lon="13.365509686838">
        <ele>100.6</ele>
        <time>2019-11-17T11:54:26Z</time>
      </trkpt>
      <trkpt lat="56.300339518292" lon="13.365509267743">
        <ele>99.6</ele>
        <time>2019-11-17T11:54:31Z</time>
      </trkpt>
      <trkpt lat="56.300411267356" lon="13.365565510292">
        <ele>98.4</ele>
        <time>2019-11-17T11:54:35Z</time>
      </trkpt>
      <trkpt lat="56.30048636918" lon="13.365572886364">
        <ele>97.8</ele>
        <time>2019-11-17T11:54:37Z</time>
      </trkpt>
      <trkpt lat="56.300521154065" lon="13.365583447558">
        <ele>97.2</ele>
        <time>2019-11-17T11:54:38Z</time>
      </trkpt>
      <trkpt lat="56.300537079675" lon="13.365583950472">
        <ele>96</ele>
        <time>2019-11-17T11:54:40Z</time>
      </trkpt>
      <trkpt lat="56.300574127673" lon="13.365665506359">
        <ele>95.4</ele>
        <time>2019-11-17T11:54:48Z</time>
      </trkpt>
      <trkpt lat="56.300585694695" lon="13.365740608183">
        <ele>95.2</ele>
        <time>2019-11-17T11:54:51Z</time>
      </trkpt>
      <trkpt lat="56.300604470151" lon="13.366101616616">
        <ele>96</ele>
        <time>2019-11-17T11:54:59Z</time>
      </trkpt>
      <trkpt lat="56.300591478206" lon="13.366180741752">
        <ele>95.2</ele>
        <time>2019-11-17T11:55:02Z</time>
      </trkpt>
      <trkpt lat="56.300592484034" lon="13.366218879397">
        <ele>95</ele>
        <time>2019-11-17T11:55:03Z</time>
      </trkpt>
      <trkpt lat="56.3005601299" lon="13.366307056985">
        <ele>94.4</ele>
        <time>2019-11-17T11:55:06Z</time>
      </trkpt>
      <trkpt lat="56.300559459348" lon="13.366378135497">
        <ele>94</ele>
        <time>2019-11-17T11:55:08Z</time>
      </trkpt>
      <trkpt lat="56.300562393013" lon="13.366451058027">
        <ele>94</ele>
        <time>2019-11-17T11:55:10Z</time>
      </trkpt>
      <trkpt lat="56.300582844849" lon="13.366632023248">
        <ele>93.4</ele>
        <time>2019-11-17T11:55:14Z</time>
      </trkpt>
      <trkpt lat="56.300565326678" lon="13.366738557197">
        <ele>92.8</ele>
        <time>2019-11-17T11:55:17Z</time>
      </trkpt>
      <trkpt lat="56.300543952833" lon="13.366865794439">
        <ele>91.6</ele>
        <time>2019-11-17T11:55:21Z</time>
      </trkpt>
      <trkpt lat="56.300542611729" lon="13.366905692283">
        <ele>91.4</ele>
        <time>2019-11-17T11:55:22Z</time>
      </trkpt>
      <trkpt lat="56.300548227602" lon="13.366958162977">
        <ele>91.2</ele>
        <time>2019-11-17T11:55:24Z</time>
      </trkpt>
      <trkpt lat="56.300533224001" lon="13.367013064422">
        <ele>91</ele>
        <time>2019-11-17T11:55:26Z</time>
      </trkpt>
      <trkpt lat="56.30053163144" lon="13.367053632818">
        <ele>91</ele>
        <time>2019-11-17T11:55:28Z</time>
      </trkpt>
      <trkpt lat="56.300518890952" lon="13.367110965014">
        <ele>90.8</ele>
        <time>2019-11-17T11:55:31Z</time>
      </trkpt>
      <trkpt lat="56.300531296164" lon="13.367157484559">
        <ele>90.6</ele>
        <time>2019-11-17T11:55:33Z</time>
      </trkpt>
      <trkpt lat="56.300549652525" lon="13.367236022962">
        <ele>90.8</ele>
        <time>2019-11-17T11:55:35Z</time>
      </trkpt>
      <trkpt lat="56.300598183726" lon="13.367471470533">
        <ele>90.6</ele>
        <time>2019-11-17T11:55:42Z</time>
      </trkpt>
      <trkpt lat="56.300603967237" lon="13.367494436939">
        <ele>90.4</ele>
        <time>2019-11-17T11:55:43Z</time>
      </trkpt>
      <trkpt lat="56.300609164015" lon="13.367512877119">
        <ele>90.2</ele>
        <time>2019-11-17T11:55:44Z</time>
      </trkpt>
      <trkpt lat="56.300602374676" lon="13.367556127723">
        <ele>89.6</ele>
        <time>2019-11-17T11:55:47Z</time>
      </trkpt>
      <trkpt lat="56.300610169843" lon="13.367580854328">
        <ele>89.6</ele>
        <time>2019-11-17T11:55:49Z</time>
      </trkpt>
      <trkpt lat="56.300599441011" lon="13.367643467121">
        <ele>89.6</ele>
        <time>2019-11-17T11:55:51Z</time>
      </trkpt>
      <trkpt lat="56.300588209265" lon="13.367778918625">
        <ele>89.8</ele>
        <time>2019-11-17T11:55:54Z</time>
      </trkpt>
      <trkpt lat="56.300559124072" lon="13.367934905784">
        <ele>91.4</ele>
        <time>2019-11-17T11:55:58Z</time>
      </trkpt>
      <trkpt lat="56.300538504598" lon="13.367977653474">
        <ele>91.6</ele>
        <time>2019-11-17T11:55:59Z</time>
      </trkpt>
      <trkpt lat="56.300477400547" lon="13.368078320093">
        <ele>92</ele>
        <time>2019-11-17T11:56:02Z</time>
      </trkpt>
      <trkpt lat="56.300412692279" lon="13.368143028361">
        <ele>92.8</ele>
        <time>2019-11-17T11:56:06Z</time>
      </trkpt>
      <trkpt lat="56.300246227745" lon="13.36824118041">
        <ele>93.8</ele>
        <time>2019-11-17T11:56:12Z</time>
      </trkpt>
      <trkpt lat="56.300247904125" lon="13.368235815994">
        <ele>94</ele>
        <time>2019-11-17T11:56:13Z</time>
      </trkpt>
      <trkpt lat="56.300271960178" lon="13.368253334165">
        <ele>93.8</ele>
        <time>2019-11-17T11:56:22Z</time>
      </trkpt>
      <trkpt lat="56.300349241296" lon="13.36820178548">
        <ele>94.6</ele>
        <time>2019-11-17T11:56:27Z</time>
      </trkpt>
      <trkpt lat="56.300394335918" lon="13.36816993426">
        <ele>94.2</ele>
        <time>2019-11-17T11:56:29Z</time>
      </trkpt>
      <trkpt lat="56.300461139661" lon="13.368066166338">
        <ele>92.8</ele>
        <time>2019-11-17T11:56:33Z</time>
      </trkpt>
      <trkpt lat="56.300512520708" lon="13.368027861055">
        <ele>91.4</ele>
        <time>2019-11-17T11:56:35Z</time>
      </trkpt>
      <trkpt lat="56.300568847076" lon="13.368016713128">
        <ele>93</ele>
        <time>2019-11-17T11:56:37Z</time>
      </trkpt>
      <trkpt lat="56.300618970838" lon="13.368012103083">
        <ele>92.2</ele>
        <time>2019-11-17T11:56:39Z</time>
      </trkpt>
      <trkpt lat="56.300685606943" lon="13.367950831394">
        <ele>91.2</ele>
        <time>2019-11-17T11:56:42Z</time>
      </trkpt>
      <trkpt lat="56.300859782825" lon="13.367794257502">
        <ele>90.2</ele>
        <time>2019-11-17T11:56:48Z</time>
      </trkpt>
      <trkpt lat="56.300964808032" lon="13.367592337531">
        <ele>89.2</ele>
        <time>2019-11-17T11:56:54Z</time>
      </trkpt>
      <trkpt lat="56.301109395807" lon="13.367340545255">
        <ele>88.4</ele>
        <time>2019-11-17T11:57:02Z</time>
      </trkpt>
      <trkpt lat="56.301117442431" lon="13.367301150325">
        <ele>88.4</ele>
        <time>2019-11-17T11:57:03Z</time>
      </trkpt>
      <trkpt lat="56.301159519569" lon="13.36727139458">
        <ele>88.2</ele>
        <time>2019-11-17T11:57:05Z</time>
      </trkpt>
      <trkpt lat="56.301175696636" lon="13.367260079015">
        <ele>88</ele>
        <time>2019-11-17T11:57:06Z</time>
      </trkpt>
      <trkpt lat="56.301221377991" lon="13.367249098726">
        <ele>86.8</ele>
        <time>2019-11-17T11:57:09Z</time>
      </trkpt>
      <trkpt lat="56.301244009121" lon="13.367226551415">
        <ele>86.2</ele>
        <time>2019-11-17T11:57:10Z</time>
      </trkpt>
      <trkpt lat="56.301301508955" lon="13.367177936395">
        <ele>85.6</ele>
        <time>2019-11-17T11:57:12Z</time>
      </trkpt>
      <trkpt lat="56.301397565529" lon="13.366898483849">
        <ele>84.4</ele>
        <time>2019-11-17T11:57:17Z</time>
      </trkpt>
      <trkpt lat="56.301506194953" lon="13.366615427086">
        <ele>83.8</ele>
        <time>2019-11-17T11:57:22Z</time>
      </trkpt>
      <trkpt lat="56.301563359511" lon="13.366287191882">
        <ele>84</ele>
        <time>2019-11-17T11:57:26Z</time>
      </trkpt>
      <trkpt lat="56.301592360885" lon="13.365951077692">
        <ele>84.8</ele>
        <time>2019-11-17T11:57:31Z</time>
      </trkpt>
      <trkpt lat="56.301546092797" lon="13.365617394253">
        <ele>84.4</ele>
        <time>2019-11-17T11:57:36Z</time>
      </trkpt>
      <trkpt lat="56.30151985745" lon="13.365363422683">
        <ele>85.6</ele>
        <time>2019-11-17T11:57:40Z</time>
      </trkpt>
      <trkpt lat="56.301509463894" lon="13.365022446991">
        <ele>86</ele>
        <time>2019-11-17T11:57:45Z</time>
      </trkpt>
      <trkpt lat="56.301495382302" lon="13.364934604679">
        <ele>85.8</ele>
        <time>2019-11-17T11:57:47Z</time>
      </trkpt>
      <trkpt lat="56.301468392584" lon="13.364883223632">
        <ele>86</ele>
        <time>2019-11-17T11:57:49Z</time>
      </trkpt>
      <trkpt lat="56.301448108386" lon="13.364763865376">
        <ele>86.2</ele>
        <time>2019-11-17T11:57:52Z</time>
      </trkpt>
      <trkpt lat="56.301424555247" lon="13.36462774332">
        <ele>87</ele>
        <time>2019-11-17T11:57:56Z</time>
      </trkpt>
      <trkpt lat="56.301412317673" lon="13.364604776914">
        <ele>87.6</ele>
        <time>2019-11-17T11:57:58Z</time>
      </trkpt>
      <trkpt lat="56.301395386235" lon="13.364584241259">
        <ele>88</ele>
        <time>2019-11-17T11:58:00Z</time>
      </trkpt>
      <trkpt lat="56.301390273276" lon="13.364581307594">
        <ele>88</ele>
        <time>2019-11-17T11:58:01Z</time>
      </trkpt>
      <trkpt lat="56.301338054039" lon="13.364450717592">
        <ele>88</ele>
        <time>2019-11-17T11:58:07Z</time>
      </trkpt>
      <trkpt lat="56.301306705733" lon="13.364330102051">
        <ele>89</ele>
        <time>2019-11-17T11:58:10Z</time>
      </trkpt>
      <trkpt lat="56.301293043236" lon="13.364292215863">
        <ele>89.2</ele>
        <time>2019-11-17T11:58:11Z</time>
      </trkpt>
      <trkpt lat="56.301161363587" lon="13.364154668884">
        <ele>90.4</ele>
        <time>2019-11-17T11:58:18Z</time>
      </trkpt>
      <trkpt lat="56.30114518652" lon="13.3641265057">
        <ele>90.6</ele>
        <time>2019-11-17T11:58:19Z</time>
      </trkpt>
      <trkpt lat="56.301069917058" lon="13.364032544601">
        <ele>91.6</ele>
        <time>2019-11-17T11:58:22Z</time>
      </trkpt>
      <trkpt lat="56.301022978418" lon="13.363929028136">
        <ele>92</ele>
        <time>2019-11-17T11:58:25Z</time>
      </trkpt>
      <trkpt lat="56.301001688392" lon="13.3638750487">
        <ele>92.4</ele>
        <time>2019-11-17T11:58:27Z</time>
      </trkpt>
      <trkpt lat="56.300984002583" lon="13.363851830837">
        <ele>93.2</ele>
        <time>2019-11-17T11:58:29Z</time>
      </trkpt>
      <trkpt lat="56.300967741697" lon="13.363821153083">
        <ele>93.8</ele>
        <time>2019-11-17T11:58:31Z</time>
      </trkpt>
      <trkpt lat="56.300949469155" lon="13.363794666279">
        <ele>94.4</ele>
        <time>2019-11-17T11:58:33Z</time>
      </trkpt>
      <trkpt lat="56.300905212723" lon="13.363749152562">
        <ele>95.4</ele>
        <time>2019-11-17T11:58:36Z</time>
      </trkpt>
      <trkpt lat="56.300873026227" lon="13.363711517831">
        <ele>96.4</ele>
        <time>2019-11-17T11:58:38Z</time>
      </trkpt>
      <trkpt lat="56.300834134211" lon="13.36366466301">
        <ele>97.6</ele>
        <time>2019-11-17T11:58:40Z</time>
      </trkpt>
      <trkpt lat="56.30078979396" lon="13.363617556732">
        <ele>98.6</ele>
        <time>2019-11-17T11:58:43Z</time>
      </trkpt>
      <trkpt lat="56.300709160082" lon="13.363537174311">
        <ele>99.8</ele>
        <time>2019-11-17T11:58:47Z</time>
      </trkpt>
      <trkpt lat="56.300521992255" lon="13.363392754174">
        <ele>101</ele>
        <time>2019-11-17T11:58:53Z</time>
      </trkpt>
      <trkpt lat="56.300508916491" lon="13.363346318448">
        <ele>101.2</ele>
        <time>2019-11-17T11:58:54Z</time>
      </trkpt>
      <trkpt lat="56.300428701708" lon="13.362992015535">
        <ele>101.6</ele>
        <time>2019-11-17T11:59:00Z</time>
      </trkpt>
      <trkpt lat="56.300378661765" lon="13.36266134958">
        <ele>101.2</ele>
        <time>2019-11-17T11:59:06Z</time>
      </trkpt>
      <trkpt lat="56.300361143594" lon="13.362464291111">
        <ele>102</ele>
        <time>2019-11-17T11:59:10Z</time>
      </trkpt>
      <trkpt lat="56.300366172734" lon="13.362294557636">
        <ele>103.4</ele>
        <time>2019-11-17T11:59:14Z</time>
      </trkpt>
      <trkpt lat="56.300353348427" lon="13.362168577679">
        <ele>104.4</ele>
        <time>2019-11-17T11:59:17Z</time>
      </trkpt>
      <trkpt lat="56.300346307631" lon="13.361832295851">
        <ele>105.4</ele>
        <time>2019-11-17T11:59:23Z</time>
      </trkpt>
      <trkpt lat="56.30034722964" lon="13.361786614496">
        <ele>105.4</ele>
        <time>2019-11-17T11:59:24Z</time>
      </trkpt>
      <trkpt lat="56.300388720045" lon="13.361411943566">
        <ele>105</ele>
        <time>2019-11-17T11:59:31Z</time>
      </trkpt>
      <trkpt lat="56.300413865745" lon="13.361325693815">
        <ele>104</ele>
        <time>2019-11-17T11:59:33Z</time>
      </trkpt>
      <trkpt lat="56.300440017273" lon="13.361178507651">
        <ele>103</ele>
        <time>2019-11-17T11:59:36Z</time>
      </trkpt>
      <trkpt lat="56.300353767522" lon="13.360927218289">
        <ele>104</ele>
        <time>2019-11-17T11:59:45Z</time>
      </trkpt>
      <trkpt lat="56.300346559088" lon="13.360894109784">
        <ele>104.2</ele>
        <time>2019-11-17T11:59:46Z</time>
      </trkpt>
      <trkpt lat="56.300263326821" lon="13.360657488747">
        <ele>105</ele>
        <time>2019-11-17T11:59:54Z</time>
      </trkpt>
      <trkpt lat="56.300255615473" lon="13.360644496802">
        <ele>105.2</ele>
        <time>2019-11-17T11:59:55Z</time>
      </trkpt>
      <trkpt lat="56.30023994132" lon="13.360621698034">
        <ele>105.8</ele>
        <time>2019-11-17T11:59:57Z</time>
      </trkpt>
      <trkpt lat="56.300231475601" lon="13.360608789908">
        <ele>106.2</ele>
        <time>2019-11-17T11:59:58Z</time>
      </trkpt>
      <trkpt lat="56.300220076217" lon="13.360591774651">
        <ele>106.8</ele>
        <time>2019-11-17T11:59:59Z</time>
      </trkpt>
      <trkpt lat="56.300184872237" lon="13.360561180716">
        <ele>107.6</ele>
        <time>2019-11-17T12:00:01Z</time>
      </trkpt>
      <trkpt lat="56.30008403798" lon="13.360436709501">
        <ele>108.6</ele>
        <time>2019-11-17T12:00:07Z</time>
      </trkpt>
      <trkpt lat="56.300044559231" lon="13.360384322626">
        <ele>109.8</ele>
        <time>2019-11-17T12:00:10Z</time>
      </trkpt>
      <trkpt lat="56.299982449352" lon="13.360300084531">
        <ele>111</ele>
        <time>2019-11-17T12:00:14Z</time>
      </trkpt>
      <trkpt lat="56.299940036938" lon="13.360152730729">
        <ele>112</ele>
        <time>2019-11-17T12:00:18Z</time>
      </trkpt>
      <trkpt lat="56.299916064704" lon="13.360090704669">
        <ele>112.2</ele>
        <time>2019-11-17T12:00:21Z</time>
      </trkpt>
      <trkpt lat="56.299823612347" lon="13.359952151862">
        <ele>113</ele>
        <time>2019-11-17T12:00:28Z</time>
      </trkpt>
      <trkpt lat="56.299790084747" lon="13.359887108318">
        <ele>113.2</ele>
        <time>2019-11-17T12:00:31Z</time>
      </trkpt>
      <trkpt lat="56.299771057834" lon="13.359840588773">
        <ele>113</ele>
        <time>2019-11-17T12:00:33Z</time>
      </trkpt>
      <trkpt lat="56.299680449495" lon="13.359699269939">
        <ele>111.8</ele>
        <time>2019-11-17T12:00:39Z</time>
      </trkpt>
      <trkpt lat="56.299635103416" lon="13.359641937743">
        <ele>111.4</ele>
        <time>2019-11-17T12:00:43Z</time>
      </trkpt>
      <trkpt lat="56.299563605809" lon="13.359546886997">
        <ele>110.6</ele>
        <time>2019-11-17T12:00:49Z</time>
      </trkpt>
      <trkpt lat="56.299514320237" lon="13.359491817914">
        <ele>109.6</ele>
        <time>2019-11-17T12:00:52Z</time>
      </trkpt>
      <trkpt lat="56.299485235044" lon="13.359360808817">
        <ele>108.2</ele>
        <time>2019-11-17T12:00:56Z</time>
      </trkpt>
      <trkpt lat="56.299458077688" lon="13.359282438052">
        <ele>106.8</ele>
        <time>2019-11-17T12:00:58Z</time>
      </trkpt>
      <trkpt lat="56.299430501237" lon="13.359201887993">
        <ele>105.2</ele>
        <time>2019-11-17T12:01:00Z</time>
      </trkpt>
      <trkpt lat="56.299423795717" lon="13.359140029571">
        <ele>104</ele>
        <time>2019-11-17T12:01:02Z</time>
      </trkpt>
      <trkpt lat="56.299404098252" lon="13.359100383184">
        <ele>102.8</ele>
        <time>2019-11-17T12:01:05Z</time>
      </trkpt>
      <trkpt lat="56.299331091903" lon="13.359007930827">
        <ele>102.2</ele>
        <time>2019-11-17T12:01:16Z</time>
      </trkpt>
      <trkpt lat="56.299294546819" lon="13.358971134286">
        <ele>102.2</ele>
        <time>2019-11-17T12:01:18Z</time>
      </trkpt>
      <trkpt lat="56.299148031207" lon="13.358744320072">
        <ele>102.2</ele>
        <time>2019-11-17T12:01:26Z</time>
      </trkpt>
      <trkpt lat="56.299122382593" lon="13.35867659432">
        <ele>102</ele>
        <time>2019-11-17T12:01:28Z</time>
      </trkpt>
      <trkpt lat="56.29910838482" lon="13.358647509127">
        <ele>101.6</ele>
        <time>2019-11-17T12:01:29Z</time>
      </trkpt>
      <trkpt lat="56.299017273567" lon="13.358524714292">
        <ele>101</ele>
        <time>2019-11-17T12:01:34Z</time>
      </trkpt>
      <trkpt lat="56.298937561698" lon="13.358241657529">
        <ele>101.2</ele>
        <time>2019-11-17T12:01:43Z</time>
      </trkpt>
      <trkpt lat="56.298820466555" lon="13.35799598404">
        <ele>102</ele>
        <time>2019-11-17T12:01:56Z</time>
      </trkpt>
      <trkpt lat="56.298800433814" lon="13.357940076767">
        <ele>102.6</ele>
        <time>2019-11-17T12:01:58Z</time>
      </trkpt>
      <trkpt lat="56.298777802684" lon="13.357921301311">
        <ele>103.2</ele>
        <time>2019-11-17T12:02:00Z</time>
      </trkpt>
      <trkpt lat="56.298756931753" lon="13.357901352389">
        <ele>103.6</ele>
        <time>2019-11-17T12:02:02Z</time>
      </trkpt>
      <trkpt lat="56.298731115501" lon="13.357762380487">
        <ele>103.4</ele>
        <time>2019-11-17T12:02:07Z</time>
      </trkpt>
      <trkpt lat="56.298745113274" lon="13.357739833176">
        <ele>102.8</ele>
        <time>2019-11-17T12:02:09Z</time>
      </trkpt>
      <trkpt lat="56.298755255373" lon="13.357698761866">
        <ele>102</ele>
        <time>2019-11-17T12:02:11Z</time>
      </trkpt>
      <trkpt lat="56.298752740803" lon="13.357660540402">
        <ele>101.4</ele>
        <time>2019-11-17T12:02:13Z</time>
      </trkpt>
      <trkpt lat="56.298743269256" lon="13.357653667244">
        <ele>101.2</ele>
        <time>2019-11-17T12:02:15Z</time>
      </trkpt>
      <trkpt lat="56.298713094416" lon="13.357655427443">
        <ele>101.4</ele>
        <time>2019-11-17T12:02:17Z</time>
      </trkpt>
      <trkpt lat="56.298697336444" lon="13.357629778829">
        <ele>102</ele>
        <time>2019-11-17T12:02:19Z</time>
      </trkpt>
      <trkpt lat="56.298665317586" lon="13.357596502686">
        <ele>102.8</ele>
        <time>2019-11-17T12:02:21Z</time>
      </trkpt>
      <trkpt lat="56.298599771128" lon="13.357520227396">
        <ele>104</ele>
        <time>2019-11-17T12:02:24Z</time>
      </trkpt>
      <trkpt lat="56.29843615644" lon="13.357371113395">
        <ele>104.6</ele>
        <time>2019-11-17T12:02:31Z</time>
      </trkpt>
      <trkpt lat="56.298397012967" lon="13.357335322682">
        <ele>105</ele>
        <time>2019-11-17T12:02:33Z</time>
      </trkpt>
      <trkpt lat="56.298371531991" lon="13.357326354049">
        <ele>106</ele>
        <time>2019-11-17T12:02:35Z</time>
      </trkpt>
      <trkpt lat="56.298354349096" lon="13.357325767316">
        <ele>106.4</ele>
        <time>2019-11-17T12:02:36Z</time>
      </trkpt>
      <trkpt lat="56.298294586149" lon="13.357355942156">
        <ele>107.2</ele>
        <time>2019-11-17T12:02:39Z</time>
      </trkpt>
      <trkpt lat="56.29827354758" lon="13.357377818915">
        <ele>107.6</ele>
        <time>2019-11-17T12:02:40Z</time>
      </trkpt>
      <trkpt lat="56.298226022207" lon="13.3574293676">
        <ele>108.6</ele>
        <time>2019-11-17T12:02:43Z</time>
      </trkpt>
      <trkpt lat="56.298202888163" lon="13.357434145283">
        <ele>109.2</ele>
        <time>2019-11-17T12:02:45Z</time>
      </trkpt>
      <trkpt lat="56.298177658644" lon="13.357417800578">
        <ele>109.8</ele>
        <time>2019-11-17T12:02:47Z</time>
      </trkpt>
      <trkpt lat="56.298047403918" lon="13.357373544146">
        <ele>111</ele>
        <time>2019-11-17T12:02:54Z</time>
      </trkpt>
      <trkpt lat="56.297978085605" lon="13.357350661559">
        <ele>111.8</ele>
        <time>2019-11-17T12:02:58Z</time>
      </trkpt>
      <trkpt lat="56.297944725643" lon="13.357361055115">
        <ele>112.2</ele>
        <time>2019-11-17T12:02:59Z</time>
      </trkpt>
      <trkpt lat="56.297870210552" lon="13.357415621284">
        <ele>113.4</ele>
        <time>2019-11-17T12:03:02Z</time>
      </trkpt>
      <trkpt lat="56.297860822824" lon="13.357438671509">
        <ele>113.6</ele>
        <time>2019-11-17T12:03:03Z</time>
      </trkpt>
      <trkpt lat="56.297791001597" lon="13.357527603468">
        <ele>114.4</ele>
        <time>2019-11-17T12:03:07Z</time>
      </trkpt>
      <trkpt lat="56.297738111808" lon="13.35762131311">
        <ele>114.6</ele>
        <time>2019-11-17T12:03:10Z</time>
      </trkpt>
      <trkpt lat="56.297683713277" lon="13.35764059148">
        <ele>114.6</ele>
        <time>2019-11-17T12:03:15Z</time>
      </trkpt>
      <trkpt lat="56.297644737442" lon="13.357632544856">
        <ele>114.8</ele>
        <time>2019-11-17T12:03:19Z</time>
      </trkpt>
      <trkpt lat="56.29753342581" lon="13.357552330073">
        <ele>115</ele>
        <time>2019-11-17T12:03:26Z</time>
      </trkpt>
      <trkpt lat="56.297497551278" lon="13.357530704771">
        <ele>115.2</ele>
        <time>2019-11-17T12:03:28Z</time>
      </trkpt>
      <trkpt lat="56.297477518537" lon="13.357528776934">
        <ele>115.4</ele>
        <time>2019-11-17T12:03:30Z</time>
      </trkpt>
      <trkpt lat="56.297427562413" lon="13.357505894347">
        <ele>116.4</ele>
        <time>2019-11-17T12:03:34Z</time>
      </trkpt>
      <trkpt lat="56.29738674256" lon="13.357497512447">
        <ele>117</ele>
        <time>2019-11-17T12:03:37Z</time>
      </trkpt>
      <trkpt lat="56.297344413965" lon="13.3574628952">
        <ele>117.6</ele>
        <time>2019-11-17T12:03:40Z</time>
      </trkpt>
      <trkpt lat="56.297238215292" lon="13.357389050661">
        <ele>118.8</ele>
        <time>2019-11-17T12:03:45Z</time>
      </trkpt>
      <trkpt lat="56.297179961087" lon="13.35735895964">
        <ele>120</ele>
        <time>2019-11-17T12:03:47Z</time>
      </trkpt>
      <trkpt lat="56.297015592028" lon="13.357164248103">
        <ele>120.2</ele>
        <time>2019-11-17T12:03:55Z</time>
      </trkpt>
      <trkpt lat="56.297004192644" lon="13.357136587833">
        <ele>120.4</ele>
        <time>2019-11-17T12:03:56Z</time>
      </trkpt>
      <trkpt lat="56.296962869877" lon="13.356963082503">
        <ele>119.8</ele>
        <time>2019-11-17T12:04:01Z</time>
      </trkpt>
      <trkpt lat="56.296888941519" lon="13.356703578879">
        <ele>119.4</ele>
        <time>2019-11-17T12:04:07Z</time>
      </trkpt>
      <trkpt lat="56.296841667603" lon="13.356650269995">
        <ele>118.8</ele>
        <time>2019-11-17T12:04:09Z</time>
      </trkpt>
      <trkpt lat="56.296821131948" lon="13.356634092928">
        <ele>118.6</ele>
        <time>2019-11-17T12:04:10Z</time>
      </trkpt>
      <trkpt lat="56.296777294611" lon="13.356578269474">
        <ele>118</ele>
        <time>2019-11-17T12:04:13Z</time>
      </trkpt>
      <trkpt lat="56.296619211977" lon="13.356391939837">
        <ele>119</ele>
        <time>2019-11-17T12:04:21Z</time>
      </trkpt>
      <trkpt lat="56.296437743842" lon="13.356246513872">
        <ele>118.8</ele>
        <time>2019-11-17T12:04:25Z</time>
      </trkpt>
      <trkpt lat="56.296286031452" lon="13.356041995512">
        <ele>118.6</ele>
        <time>2019-11-17T12:04:31Z</time>
      </trkpt>
      <trkpt lat="56.296165583549" lon="13.355781821336">
        <ele>118.6</ele>
        <time>2019-11-17T12:04:37Z</time>
      </trkpt>
      <trkpt lat="56.296097438702" lon="13.355643603805">
        <ele>119.4</ele>
        <time>2019-11-17T12:04:41Z</time>
      </trkpt>
      <trkpt lat="56.296069694613" lon="13.355622984331">
        <ele>120</ele>
        <time>2019-11-17T12:04:43Z</time>
      </trkpt>
      <trkpt lat="56.296042788714" lon="13.355559198072">
        <ele>119.8</ele>
        <time>2019-11-17T12:04:47Z</time>
      </trkpt>
      <trkpt lat="56.296007417096" lon="13.355481078764">
        <ele>119.4</ele>
        <time>2019-11-17T12:04:51Z</time>
      </trkpt>
      <trkpt lat="56.295918736594" lon="13.355204476064">
        <ele>120</ele>
        <time>2019-11-17T12:05:00Z</time>
      </trkpt>
      <trkpt lat="56.295884538442" lon="13.354869702978">
        <ele>119.8</ele>
        <time>2019-11-17T12:05:09Z</time>
      </trkpt>
      <trkpt lat="56.295887388288" lon="13.354847993857">
        <ele>119.8</ele>
        <time>2019-11-17T12:05:10Z</time>
      </trkpt>
      <trkpt lat="56.295890992505" lon="13.354809772393">
        <ele>119.6</ele>
        <time>2019-11-17T12:05:12Z</time>
      </trkpt>
      <trkpt lat="56.295910438513" lon="13.354725785755">
        <ele>119.2</ele>
        <time>2019-11-17T12:05:15Z</time>
      </trkpt>
      <trkpt lat="56.295913288359" lon="13.354648336999">
        <ele>118.8</ele>
        <time>2019-11-17T12:05:17Z</time>
      </trkpt>
      <trkpt lat="56.295929213969" lon="13.354408447021">
        <ele>118.2</ele>
        <time>2019-11-17T12:05:27Z</time>
      </trkpt>
      <trkpt lat="56.295931728539" lon="13.354334434844">
        <ele>118.2</ele>
        <time>2019-11-17T12:05:29Z</time>
      </trkpt>
      <trkpt lat="56.295932650548" lon="13.354025226553">
        <ele>118</ele>
        <time>2019-11-17T12:05:37Z</time>
      </trkpt>
      <trkpt lat="56.295919742422" lon="13.353985915442">
        <ele>117.8</ele>
        <time>2019-11-17T12:05:39Z</time>
      </trkpt>
      <trkpt lat="56.295910354694" lon="13.353892792533">
        <ele>116.6</ele>
        <time>2019-11-17T12:05:42Z</time>
      </trkpt>
      <trkpt lat="56.295924687743" lon="13.35384861992">
        <ele>115.6</ele>
        <time>2019-11-17T12:05:44Z</time>
      </trkpt>
      <trkpt lat="56.295934746023" lon="13.35383437069">
        <ele>115</ele>
        <time>2019-11-17T12:05:45Z</time>
      </trkpt>
      <trkpt lat="56.295942708828" lon="13.353814589406">
        <ele>114.6</ele>
        <time>2019-11-17T12:05:46Z</time>
      </trkpt>
      <trkpt lat="56.296032730434" lon="13.353635132927">
        <ele>113.4</ele>
        <time>2019-11-17T12:05:54Z</time>
      </trkpt>
      <trkpt lat="56.296173378716" lon="13.353513176282">
        <ele>113.4</ele>
        <time>2019-11-17T12:06:05Z</time>
      </trkpt>
      <trkpt lat="56.296193243819" lon="13.353485767469">
        <ele>113.2</ele>
        <time>2019-11-17T12:06:07Z</time>
      </trkpt>
      <trkpt lat="56.296214030931" lon="13.353460789407">
        <ele>113</ele>
        <time>2019-11-17T12:06:09Z</time>
      </trkpt>
      <trkpt lat="56.296294832447" lon="13.353415610966">
        <ele>112.6</ele>
        <time>2019-11-17T12:06:12Z</time>
      </trkpt>
      <trkpt lat="56.296404635337" lon="13.353354423096">
        <ele>112.4</ele>
        <time>2019-11-17T12:06:15Z</time>
      </trkpt>
      <trkpt lat="56.296494405486" lon="13.353276387607">
        <ele>111.2</ele>
        <time>2019-11-17T12:06:18Z</time>
      </trkpt>
      <trkpt lat="56.296543858696" lon="13.353253924115">
        <ele>110.2</ele>
        <time>2019-11-17T12:06:20Z</time>
      </trkpt>
      <trkpt lat="56.296595994114" lon="13.353223413999">
        <ele>108.8</ele>
        <time>2019-11-17T12:06:24Z</time>
      </trkpt>
      <trkpt lat="56.296612087362" lon="13.353103301372">
        <ele>108.6</ele>
        <time>2019-11-17T12:06:30Z</time>
      </trkpt>
      <trkpt lat="56.296609321335" lon="13.352951421344">
        <ele>108.6</ele>
        <time>2019-11-17T12:06:35Z</time>
      </trkpt>
      <trkpt lat="56.296570010224" lon="13.352567111229">
        <ele>108.2</ele>
        <time>2019-11-17T12:06:42Z</time>
      </trkpt>
      <trkpt lat="56.296471858175" lon="13.352298219877">
        <ele>107.8</ele>
        <time>2019-11-17T12:06:47Z</time>
      </trkpt>
      <trkpt lat="56.296317798853" lon="13.352078865554">
        <ele>107.8</ele>
        <time>2019-11-17T12:06:53Z</time>
      </trkpt>
      <trkpt lat="56.296275889353" lon="13.351994795097">
        <ele>107.8</ele>
        <time>2019-11-17T12:06:56Z</time>
      </trkpt>
      <trkpt lat="56.296253342042" lon="13.351950790122">
        <ele>107.8</ele>
        <time>2019-11-17T12:06:58Z</time>
      </trkpt>
      <trkpt lat="56.296182095892" lon="13.351605539661">
        <ele>108.8</ele>
        <time>2019-11-17T12:07:06Z</time>
      </trkpt>
      <trkpt lat="56.296176815295" lon="13.351501771739">
        <ele>109.2</ele>
        <time>2019-11-17T12:07:09Z</time>
      </trkpt>
      <trkpt lat="56.296193243819" lon="13.351301528148">
        <ele>109.8</ele>
        <time>2019-11-17T12:07:15Z</time>
      </trkpt>
      <trkpt lat="56.296196009846" lon="13.351275963353">
        <ele>110</ele>
        <time>2019-11-17T12:07:16Z</time>
      </trkpt>
      <trkpt lat="56.29622920217" lon="13.35114461898">
        <ele>111.6</ele>
        <time>2019-11-17T12:07:21Z</time>
      </trkpt>
      <trkpt lat="56.296248731997" lon="13.351094662856">
        <ele>112.8</ele>
        <time>2019-11-17T12:07:23Z</time>
      </trkpt>
      <trkpt lat="56.296286953461" lon="13.350879918578">
        <ele>114</ele>
        <time>2019-11-17T12:07:28Z</time>
      </trkpt>
      <trkpt lat="56.29633649049" lon="13.350723763781">
        <ele>114.2</ele>
        <time>2019-11-17T12:07:32Z</time>
      </trkpt>
      <trkpt lat="56.296355852679" lon="13.350678501521">
        <ele>114.4</ele>
        <time>2019-11-17T12:07:34Z</time>
      </trkpt>
      <trkpt lat="56.296354679213" lon="13.350463086691">
        <ele>113.8</ele>
        <time>2019-11-17T12:07:39Z</time>
      </trkpt>
      <trkpt lat="56.296389967012" lon="13.350217664659">
        <ele>112.8</ele>
        <time>2019-11-17T12:07:44Z</time>
      </trkpt>
      <trkpt lat="56.296424081345" lon="13.350036447981">
        <ele>111.6</ele>
        <time>2019-11-17T12:07:48Z</time>
      </trkpt>
      <trkpt lat="56.296458530954" lon="13.349898901002">
        <ele>110</ele>
        <time>2019-11-17T12:07:51Z</time>
      </trkpt>
      <trkpt lat="56.296507984164" lon="13.349577874232">
        <ele>109.2</ele>
        <time>2019-11-17T12:07:57Z</time>
      </trkpt>
      <trkpt lat="56.296525334697" lon="13.349397747201">
        <ele>109.2</ele>
        <time>2019-11-17T12:08:01Z</time>
      </trkpt>
      <trkpt lat="56.296521814299" lon="13.349332116924">
        <ele>109.2</ele>
        <time>2019-11-17T12:08:03Z</time>
      </trkpt>
      <trkpt lat="56.296528184543" lon="13.349246370087">
        <ele>109</ele>
        <time>2019-11-17T12:08:05Z</time>
      </trkpt>
      <trkpt lat="56.296508487078" lon="13.349176716498">
        <ele>108.8</ele>
        <time>2019-11-17T12:08:07Z</time>
      </trkpt>
      <trkpt lat="56.296455597289" lon="13.34902986561">
        <ele>108.2</ele>
        <time>2019-11-17T12:08:11Z</time>
      </trkpt>
      <trkpt lat="56.296427350286" lon="13.348929198991">
        <ele>108</ele>
        <time>2019-11-17T12:08:13Z</time>
      </trkpt>
      <trkpt lat="56.296414945074" lon="13.348770781081">
        <ele>107.4</ele>
        <time>2019-11-17T12:08:17Z</time>
      </trkpt>
      <trkpt lat="56.296446628656" lon="13.348661732562">
        <ele>106.8</ele>
        <time>2019-11-17T12:08:20Z</time>
      </trkpt>
      <trkpt lat="56.296462470447" lon="13.348528795628">
        <ele>105.8</ele>
        <time>2019-11-17T12:08:23Z</time>
      </trkpt>
      <trkpt lat="56.296465739388" lon="13.348504236661">
        <ele>105.4</ele>
        <time>2019-11-17T12:08:24Z</time>
      </trkpt>
      <trkpt lat="56.296479653342" lon="13.348444389895">
        <ele>104.4</ele>
        <time>2019-11-17T12:08:26Z</time>
      </trkpt>
      <trkpt lat="56.296480491532" lon="13.348371718822">
        <ele>103.2</ele>
        <time>2019-11-17T12:08:28Z</time>
      </trkpt>
      <trkpt lat="56.296479234247" lon="13.3483182423">
        <ele>102.4</ele>
        <time>2019-11-17T12:08:30Z</time>
      </trkpt>
      <trkpt lat="56.296484431025" lon="13.348236351137">
        <ele>102</ele>
        <time>2019-11-17T12:08:32Z</time>
      </trkpt>
      <trkpt lat="56.296498512617" lon="13.348040717591">
        <ele>100.6</ele>
        <time>2019-11-17T12:08:37Z</time>
      </trkpt>
      <trkpt lat="56.296524999421" lon="13.347879114559">
        <ele>99.2</ele>
        <time>2019-11-17T12:08:40Z</time>
      </trkpt>
      <trkpt lat="56.296540757393" lon="13.347773167343">
        <ele>97.6</ele>
        <time>2019-11-17T12:08:42Z</time>
      </trkpt>
      <trkpt lat="56.296543942515" lon="13.347698400795">
        <ele>96.2</ele>
        <time>2019-11-17T12:08:44Z</time>
      </trkpt>
      <trkpt lat="56.296540673574" lon="13.347610726121">
        <ele>95.2</ele>
        <time>2019-11-17T12:08:46Z</time>
      </trkpt>
      <trkpt lat="56.296535895891" lon="13.347435963506">
        <ele>94</ele>
        <time>2019-11-17T12:08:49Z</time>
      </trkpt>
      <trkpt lat="56.296543858696" lon="13.347400675707">
        <ele>93.6</ele>
        <time>2019-11-17T12:08:51Z</time>
      </trkpt>
      <trkpt lat="56.296412346685" lon="13.347227254196">
        <ele>94.2</ele>
        <time>2019-11-17T12:09:00Z</time>
      </trkpt>
      <trkpt lat="56.296389883193" lon="13.347163048842">
        <ele>94</ele>
        <time>2019-11-17T12:09:02Z</time>
      </trkpt>
      <trkpt lat="56.296363564027" lon="13.347152990562">
        <ele>94</ele>
        <time>2019-11-17T12:09:04Z</time>
      </trkpt>
      <trkpt lat="56.296330958436" lon="13.347095993642">
        <ele>94.6</ele>
        <time>2019-11-17T12:09:07Z</time>
      </trkpt>
      <trkpt lat="56.296307572935" lon="13.347080570946">
        <ele>95.2</ele>
        <time>2019-11-17T12:09:09Z</time>
      </trkpt>
      <trkpt lat="56.29630296289" lon="13.347079732756">
        <ele>95.6</ele>
        <time>2019-11-17T12:09:10Z</time>
      </trkpt>
      <trkpt lat="56.296273710059" lon="13.347081492955">
        <ele>96.4</ele>
        <time>2019-11-17T12:09:12Z</time>
      </trkpt>
      <trkpt lat="56.296261221028" lon="13.347075793263">
        <ele>96.8</ele>
        <time>2019-11-17T12:09:13Z</time>
      </trkpt>
      <trkpt lat="56.296198859692" lon="13.347080487127">
        <ele>97.6</ele>
        <time>2019-11-17T12:09:17Z</time>
      </trkpt>
      <trkpt lat="56.2961763962" lon="13.347081995869">
        <ele>97.8</ele>
        <time>2019-11-17T12:09:18Z</time>
      </trkpt>
      <trkpt lat="56.29616214697" lon="13.347083001697">
        <ele>98.2</ele>
        <time>2019-11-17T12:09:19Z</time>
      </trkpt>
      <trkpt lat="56.296126356257" lon="13.347087611742">
        <ele>98.6</ele>
        <time>2019-11-17T12:09:21Z</time>
      </trkpt>
      <trkpt lat="56.296110682104" lon="13.347082666421">
        <ele>98.8</ele>
        <time>2019-11-17T12:09:22Z</time>
      </trkpt>
      <trkpt lat="56.296012865331" lon="13.346984346734">
        <ele>99.4</ele>
        <time>2019-11-17T12:09:26Z</time>
      </trkpt>
      <trkpt lat="56.295995766255" lon="13.34696540364">
        <ele>99.8</ele>
        <time>2019-11-17T12:09:27Z</time>
      </trkpt>
      <trkpt lat="56.29597439241" lon="13.346953082247">
        <ele>100.2</ele>
        <time>2019-11-17T12:09:28Z</time>
      </trkpt>
      <trkpt lat="56.295932650548" lon="13.346922572131">
        <ele>101</ele>
        <time>2019-11-17T12:09:30Z</time>
      </trkpt>
      <trkpt lat="56.295886969193" lon="13.346907317073">
        <ele>101.8</ele>
        <time>2019-11-17T12:09:32Z</time>
      </trkpt>
      <trkpt lat="56.295868529013" lon="13.346907987625">
        <ele>102</ele>
        <time>2019-11-17T12:09:33Z</time>
      </trkpt>
      <trkpt lat="56.29582016545" lon="13.346897342612">
        <ele>102.6</ele>
        <time>2019-11-17T12:09:35Z</time>
      </trkpt>
      <trkpt lat="56.295781441072" lon="13.346898851354">
        <ele>103</ele>
        <time>2019-11-17T12:09:37Z</time>
      </trkpt>
      <trkpt lat="56.295742549056" lon="13.346889631264">
        <ele>103.4</ele>
        <time>2019-11-17T12:09:39Z</time>
      </trkpt>
      <trkpt lat="56.295670213259" lon="13.346901365924">
        <ele>104</ele>
        <time>2019-11-17T12:09:42Z</time>
      </trkpt>
      <trkpt lat="56.295608271018" lon="13.346940174121">
        <ele>105.2</ele>
        <time>2019-11-17T12:09:45Z</time>
      </trkpt>
      <trkpt lat="56.295583125318" lon="13.34698384382">
        <ele>106</ele>
        <time>2019-11-17T12:09:48Z</time>
      </trkpt>
      <trkpt lat="56.295573989047" lon="13.346998847421">
        <ele>106.4</ele>
        <time>2019-11-17T12:09:49Z</time>
      </trkpt>
      <trkpt lat="56.295528642968" lon="13.347059783834">
        <ele>107</ele>
        <time>2019-11-17T12:09:55Z</time>
      </trkpt>
      <trkpt lat="56.295520847801" lon="13.347128599233">
        <ele>107.2</ele>
        <time>2019-11-17T12:09:59Z</time>
      </trkpt>
      <trkpt lat="56.295520428706" lon="13.347178974452">
        <ele>107.4</ele>
        <time>2019-11-17T12:10:01Z</time>
      </trkpt>
      <trkpt lat="56.295516824489" lon="13.347211999138">
        <ele>107.6</ele>
        <time>2019-11-17T12:10:02Z</time>
      </trkpt>
      <trkpt lat="56.295522608" lon="13.347264553651">
        <ele>108.4</ele>
        <time>2019-11-17T12:10:04Z</time>
      </trkpt>
      <trkpt lat="56.295532079547" lon="13.347375027093">
        <ele>109.6</ele>
        <time>2019-11-17T12:10:09Z</time>
      </trkpt>
      <trkpt lat="56.295532750099" lon="13.347383325174">
        <ele>109.6</ele>
        <time>2019-11-17T12:10:10Z</time>
      </trkpt>
      <trkpt lat="56.295525541665" lon="13.34752615275">
        <ele>110.6</ele>
        <time>2019-11-17T12:10:15Z</time>
      </trkpt>
      <trkpt lat="56.295527972416" lon="13.347553896839">
        <ele>111</ele>
        <time>2019-11-17T12:10:16Z</time>
      </trkpt>
      <trkpt lat="56.295545574406" lon="13.347635368907">
        <ele>111.6</ele>
        <time>2019-11-17T12:10:19Z</time>
      </trkpt>
      <trkpt lat="56.295509113141" lon="13.347833517023">
        <ele>111.8</ele>
        <time>2019-11-17T12:10:24Z</time>
      </trkpt>
      <trkpt lat="56.295483129251" lon="13.348206679211">
        <ele>112.2</ele>
        <time>2019-11-17T12:10:31Z</time>
      </trkpt>
      <trkpt lat="56.295472400419" lon="13.348298544835">
        <ele>112.8</ele>
        <time>2019-11-17T12:10:33Z</time>
      </trkpt>
      <trkpt lat="56.295443147588" lon="13.3484439708">
        <ele>113.8</ele>
        <time>2019-11-17T12:10:36Z</time>
      </trkpt>
      <trkpt lat="56.295398807337" lon="13.348679586009">
        <ele>114.4</ele>
        <time>2019-11-17T12:10:42Z</time>
      </trkpt>
      <trkpt lat="56.29531389869" lon="13.348997595295">
        <ele>114.4</ele>
        <time>2019-11-17T12:10:51Z</time>
      </trkpt>
      <trkpt lat="56.295305349152" lon="13.349017208941">
        <ele>114.2</ele>
        <time>2019-11-17T12:10:52Z</time>
      </trkpt>
      <trkpt lat="56.295337954743" lon="13.349140674328">
        <ele>113.6</ele>
        <time>2019-11-17T12:10:58Z</time>
      </trkpt>
      <trkpt lat="56.295368632497" lon="13.349147966581">
        <ele>113.6</ele>
        <time>2019-11-17T12:11:00Z</time>
      </trkpt>
      <trkpt lat="56.295445075425" lon="13.349161377621">
        <ele>113.8</ele>
        <time>2019-11-17T12:11:05Z</time>
      </trkpt>
      <trkpt lat="56.295479692672" lon="13.349194318488">
        <ele>113.8</ele>
        <time>2019-11-17T12:11:08Z</time>
      </trkpt>
      <trkpt lat="56.295564936595" lon="13.349203957673">
        <ele>113.8</ele>
        <time>2019-11-17T12:11:13Z</time>
      </trkpt>
      <trkpt lat="56.295767108023" lon="13.34926036786">
        <ele>114</ele>
        <time>2019-11-17T12:11:22Z</time>
      </trkpt>
      <trkpt lat="56.295821422735" lon="13.349265983733">
        <ele>114</ele>
        <time>2019-11-17T12:11:24Z</time>
      </trkpt>
      <trkpt lat="56.295880431311" lon="13.349331027277">
        <ele>113.6</ele>
        <time>2019-11-17T12:11:28Z</time>
      </trkpt>
      <trkpt lat="56.295948324701" lon="13.349453403017">
        <ele>113.6</ele>
        <time>2019-11-17T12:11:32Z</time>
      </trkpt>
      <trkpt lat="56.296009344933" lon="13.349528672479">
        <ele>113</ele>
        <time>2019-11-17T12:11:35Z</time>
      </trkpt>
      <trkpt lat="56.29603138933" lon="13.349542083519">
        <ele>112.8</ele>
        <time>2019-11-17T12:11:36Z</time>
      </trkpt>
      <trkpt lat="56.296103222213" lon="13.349598661344">
        <ele>111.8</ele>
        <time>2019-11-17T12:11:38Z</time>
      </trkpt>
      <trkpt lat="56.296119483099" lon="13.3496090549">
        <ele>111.2</ele>
        <time>2019-11-17T12:11:39Z</time>
      </trkpt>
      <trkpt lat="56.296160302952" lon="13.349600421543">
        <ele>110.4</ele>
        <time>2019-11-17T12:11:41Z</time>
      </trkpt>
      <trkpt lat="56.296336909585" lon="13.349688347674">
        <ele>109.8</ele>
        <time>2019-11-17T12:11:48Z</time>
      </trkpt>
      <trkpt lat="56.296383093854" lon="13.34967862467">
        <ele>109.8</ele>
        <time>2019-11-17T12:11:50Z</time>
      </trkpt>
      <trkpt lat="56.296545367438" lon="13.349851878543">
        <ele>110.8</ele>
        <time>2019-11-17T12:11:59Z</time>
      </trkpt>
      <trkpt lat="56.296661205296" lon="13.350043572596">
        <ele>109.8</ele>
        <time>2019-11-17T12:12:06Z</time>
      </trkpt>
      <trkpt lat="56.296680064571" lon="13.350069305029">
        <ele>109.4</ele>
        <time>2019-11-17T12:12:07Z</time>
      </trkpt>
      <trkpt lat="56.296712418705" lon="13.350127559234">
        <ele>108.4</ele>
        <time>2019-11-17T12:12:09Z</time>
      </trkpt>
      <trkpt lat="56.296746700676" lon="13.350165780698">
        <ele>106.6</ele>
        <time>2019-11-17T12:12:11Z</time>
      </trkpt>
      <trkpt lat="56.296806798899" lon="13.3502376974">
        <ele>105.6</ele>
        <time>2019-11-17T12:12:14Z</time>
      </trkpt>
      <trkpt lat="56.296881816904" lon="13.350425619598">
        <ele>104.4</ele>
        <time>2019-11-17T12:12:20Z</time>
      </trkpt>
      <trkpt lat="56.296944010602" lon="13.350611194864">
        <ele>103.2</ele>
        <time>2019-11-17T12:12:25Z</time>
      </trkpt>
      <trkpt lat="56.296974772175" lon="13.350719069917">
        <ele>101.8</ele>
        <time>2019-11-17T12:12:28Z</time>
      </trkpt>
      <trkpt lat="56.296986590654" lon="13.350742120142">
        <ele>101.4</ele>
        <time>2019-11-17T12:12:29Z</time>
      </trkpt>
      <trkpt lat="56.296998576771" lon="13.350798027415">
        <ele>100.4</ele>
        <time>2019-11-17T12:12:31Z</time>
      </trkpt>
      <trkpt lat="56.297005869024" lon="13.350812528102">
        <ele>100</ele>
        <time>2019-11-17T12:12:32Z</time>
      </trkpt>
      <trkpt lat="56.297050544551" lon="13.350887378469">
        <ele>99.4</ele>
        <time>2019-11-17T12:12:35Z</time>
      </trkpt>
      <trkpt lat="56.297078121002" lon="13.350917888585">
        <ele>99.4</ele>
        <time>2019-11-17T12:12:36Z</time>
      </trkpt>
      <trkpt lat="56.297116174828" lon="13.350990978753">
        <ele>99.2</ele>
        <time>2019-11-17T12:12:38Z</time>
      </trkpt>
      <trkpt lat="56.297257996576" lon="13.351068930423">
        <ele>98.2</ele>
        <time>2019-11-17T12:12:43Z</time>
      </trkpt>
      <trkpt lat="56.297324884138" lon="13.351126765533">
        <ele>96.8</ele>
        <time>2019-11-17T12:12:46Z</time>
      </trkpt>
      <trkpt lat="56.29737836066" lon="13.351183091901">
        <ele>95.8</ele>
        <time>2019-11-17T12:12:48Z</time>
      </trkpt>
      <trkpt lat="56.297437788331" lon="13.351209411067">
        <ele>94.8</ele>
        <time>2019-11-17T12:12:50Z</time>
      </trkpt>
      <trkpt lat="56.297464778049" lon="13.351216619501">
        <ele>94.6</ele>
        <time>2019-11-17T12:12:51Z</time>
      </trkpt>
      <trkpt lat="56.297496210174" lon="13.351241262287">
        <ele>94.6</ele>
        <time>2019-11-17T12:12:53Z</time>
      </trkpt>
      <trkpt lat="56.297638870112" lon="13.351473524736">
        <ele>94.8</ele>
        <time>2019-11-17T12:13:02Z</time>
      </trkpt>
      <trkpt lat="56.297739452912" lon="13.351537310995">
        <ele>93.2</ele>
        <time>2019-11-17T12:13:06Z</time>
      </trkpt>
      <trkpt lat="56.297755881436" lon="13.351547033999">
        <ele>92.4</ele>
        <time>2019-11-17T12:13:07Z</time>
      </trkpt>
      <trkpt lat="56.297760826757" lon="13.351576873563">
        <ele>92</ele>
        <time>2019-11-17T12:13:08Z</time>
      </trkpt>
      <trkpt lat="56.297819416238" lon="13.351664967332">
        <ele>90.8</ele>
        <time>2019-11-17T12:13:11Z</time>
      </trkpt>
      <trkpt lat="56.297866438697" lon="13.351719030587">
        <ele>90.4</ele>
        <time>2019-11-17T12:13:14Z</time>
      </trkpt>
      <trkpt lat="56.297887393447" lon="13.351733782731">
        <ele>89.6</ele>
        <time>2019-11-17T12:13:16Z</time>
      </trkpt>
      <trkpt lat="56.297901642677" lon="13.35175146854">
        <ele>89</ele>
        <time>2019-11-17T12:13:17Z</time>
      </trkpt>
      <trkpt lat="56.297954364828" lon="13.351762867924">
        <ele>88.4</ele>
        <time>2019-11-17T12:13:19Z</time>
      </trkpt>
      <trkpt lat="56.297996190509" lon="13.351756246223">
        <ele>87.2</ele>
        <time>2019-11-17T12:13:23Z</time>
      </trkpt>
      <trkpt lat="56.29802795791" lon="13.351744343925">
        <ele>86.4</ele>
        <time>2019-11-17T12:13:25Z</time>
      </trkpt>
      <trkpt lat="56.298035166344" lon="13.351734537102">
        <ele>86</ele>
        <time>2019-11-17T12:13:26Z</time>
      </trkpt>
      <trkpt lat="56.298093588187" lon="13.351821541224">
        <ele>85</ele>
        <time>2019-11-17T12:13:30Z</time>
      </trkpt>
      <trkpt lat="56.298107418322" lon="13.351839897585">
        <ele>85</ele>
        <time>2019-11-17T12:13:31Z</time>
      </trkpt>
      <trkpt lat="56.298145975062" lon="13.351859678869">
        <ele>84.2</ele>
        <time>2019-11-17T12:13:35Z</time>
      </trkpt>
      <trkpt lat="56.29814781908" lon="13.351885327483">
        <ele>84</ele>
        <time>2019-11-17T12:13:36Z</time>
      </trkpt>
      <trkpt lat="56.298139688637" lon="13.351906449871">
        <ele>83.6</ele>
        <time>2019-11-17T12:13:37Z</time>
      </trkpt>
      <trkpt lat="56.298139101904" lon="13.351934110141">
        <ele>83</ele>
        <time>2019-11-17T12:13:39Z</time>
      </trkpt>
      <trkpt lat="56.298254939762" lon="13.352001752074">
        <ele>82.4</ele>
        <time>2019-11-17T12:13:45Z</time>
      </trkpt>
      <trkpt lat="56.298279750186" lon="13.352010804526">
        <ele>82.6</ele>
        <time>2019-11-17T12:13:47Z</time>
      </trkpt>
      <trkpt lat="56.298336495649" lon="13.352023125919">
        <ele>83</ele>
        <time>2019-11-17T12:13:52Z</time>
      </trkpt>
      <trkpt lat="56.298366335213" lon="13.352059419546">
        <ele>83</ele>
        <time>2019-11-17T12:13:55Z</time>
      </trkpt>
      <trkpt lat="56.298386367954" lon="13.352101580503">
        <ele>82.4</ele>
        <time>2019-11-17T12:13:59Z</time>
      </trkpt>
      <trkpt lat="56.298426181979" lon="13.352129408411">
        <ele>82.4</ele>
        <time>2019-11-17T12:14:02Z</time>
      </trkpt>
      <trkpt lat="56.298480245234" lon="13.352170060626">
        <ele>83</ele>
        <time>2019-11-17T12:14:06Z</time>
      </trkpt>
      <trkpt lat="56.298534895222" lon="13.352215322886">
        <ele>83</ele>
        <time>2019-11-17T12:14:08Z</time>
      </trkpt>
      <trkpt lat="56.298641345352" lon="13.352195373964">
        <ele>83.2</ele>
        <time>2019-11-17T12:14:12Z</time>
      </trkpt>
      <trkpt lat="56.298747711663" lon="13.352205348425">
        <ele>83.8</ele>
        <time>2019-11-17T12:14:17Z</time>
      </trkpt>
      <trkpt lat="56.29888458809" lon="13.352100574675">
        <ele>83</ele>
        <time>2019-11-17T12:14:25Z</time>
      </trkpt>
      <trkpt lat="56.298919875889" lon="13.351991274699">
        <ele>83</ele>
        <time>2019-11-17T12:14:28Z</time>
      </trkpt>
      <trkpt lat="56.299019117585" lon="13.351690615946">
        <ele>82.8</ele>
        <time>2019-11-17T12:14:35Z</time>
      </trkpt>
      <trkpt lat="56.299056919954" lon="13.351361207276">
        <ele>82.8</ele>
        <time>2019-11-17T12:14:41Z</time>
      </trkpt>
      <trkpt lat="56.299145684275" lon="13.35103649247">
        <ele>83</ele>
        <time>2019-11-17T12:14:49Z</time>
      </trkpt>
      <trkpt lat="56.299154233813" lon="13.350996510807">
        <ele>83</ele>
        <time>2019-11-17T12:14:50Z</time>
      </trkpt>
      <trkpt lat="56.299222211022" lon="13.350747484558">
        <ele>84</ele>
        <time>2019-11-17T12:14:57Z</time>
      </trkpt>
      <trkpt lat="56.299295804104" lon="13.350442551036">
        <ele>84.4</ele>
        <time>2019-11-17T12:15:04Z</time>
      </trkpt>
      <trkpt lat="56.29935816544" lon="13.350120183162">
        <ele>84.8</ele>
        <time>2019-11-17T12:15:13Z</time>
      </trkpt>
      <trkpt lat="56.299367217892" lon="13.350097635851">
        <ele>84.8</ele>
        <time>2019-11-17T12:15:14Z</time>
      </trkpt>
      <trkpt lat="56.299413653618" lon="13.349866714506">
        <ele>85.2</ele>
        <time>2019-11-17T12:15:21Z</time>
      </trkpt>
      <trkpt lat="56.29948137937" lon="13.349610898918">
        <ele>86.2</ele>
        <time>2019-11-17T12:15:29Z</time>
      </trkpt>
      <trkpt lat="56.299490850917" lon="13.349527666651">
        <ele>86.8</ele>
        <time>2019-11-17T12:15:31Z</time>
      </trkpt>
      <trkpt lat="56.299485654139" lon="13.349457593967">
        <ele>87.4</ele>
        <time>2019-11-17T12:15:33Z</time>
      </trkpt>
      <trkpt lat="56.299469812348" lon="13.349352652579">
        <ele>88.6</ele>
        <time>2019-11-17T12:15:36Z</time>
      </trkpt>
      <trkpt lat="56.299456568946" lon="13.349015532561">
        <ele>89</ele>
        <time>2019-11-17T12:15:43Z</time>
      </trkpt>
      <trkpt lat="56.29945120453" lon="13.348971695224">
        <ele>89</ele>
        <time>2019-11-17T12:15:44Z</time>
      </trkpt>
      <trkpt lat="56.299399572026" lon="13.348669779186">
        <ele>89.6</ele>
        <time>2019-11-17T12:15:51Z</time>
      </trkpt>
      <trkpt lat="56.299382305312" lon="13.348512283285">
        <ele>90.2</ele>
        <time>2019-11-17T12:15:55Z</time>
      </trkpt>
      <trkpt lat="56.299382975864" lon="13.348450927777">
        <ele>90.2</ele>
        <time>2019-11-17T12:15:57Z</time>
      </trkpt>
      <trkpt lat="56.299354728861" lon="13.348107353696">
        <ele>89.8</ele>
        <time>2019-11-17T12:16:05Z</time>
      </trkpt>
      <trkpt lat="56.299332349188" lon="13.348048177482">
        <ele>89</ele>
        <time>2019-11-17T12:16:07Z</time>
      </trkpt>
      <trkpt lat="56.299335031396" lon="13.348007189991">
        <ele>88.6</ele>
        <time>2019-11-17T12:16:10Z</time>
      </trkpt>
      <trkpt lat="56.299344502943" lon="13.347989252725">
        <ele>88.6</ele>
        <time>2019-11-17T12:16:11Z</time>
      </trkpt>
      <trkpt lat="56.29937157648" lon="13.347971315459">
        <ele>89.6</ele>
        <time>2019-11-17T12:16:15Z</time>
      </trkpt>
      <trkpt lat="56.29939253123" lon="13.348013560235">
        <ele>90.8</ele>
        <time>2019-11-17T12:16:18Z</time>
      </trkpt>
      <trkpt lat="56.299429243952" lon="13.348050524414">
        <ele>91.6</ele>
        <time>2019-11-17T12:16:21Z</time>
      </trkpt>
      <trkpt lat="56.299467716873" lon="13.348035520813">
        <ele>92</ele>
        <time>2019-11-17T12:16:23Z</time>
      </trkpt>
      <trkpt lat="56.299504345776" lon="13.348120764736">
        <ele>92.2</ele>
        <time>2019-11-17T12:16:26Z</time>
      </trkpt>
      <trkpt lat="56.299658069822" lon="13.348297874283">
        <ele>91.2</ele>
        <time>2019-11-17T12:16:32Z</time>
      </trkpt>
      <trkpt lat="56.299686149187" lon="13.348306591459">
        <ele>91</ele>
        <time>2019-11-17T12:16:33Z</time>
      </trkpt>
      <trkpt lat="56.299789498014" lon="13.348515552226">
        <ele>89.6</ele>
        <time>2019-11-17T12:16:40Z</time>
      </trkpt>
      <trkpt lat="56.299804333977" lon="13.348545140333">
        <ele>89</ele>
        <time>2019-11-17T12:16:41Z</time>
      </trkpt>
      <trkpt lat="56.299854206282" lon="13.348612363171">
        <ele>88.4</ele>
        <time>2019-11-17T12:16:43Z</time>
      </trkpt>
      <trkpt lat="56.299935929807" lon="13.348744629553">
        <ele>87.2</ele>
        <time>2019-11-17T12:16:46Z</time>
      </trkpt>
      <trkpt lat="56.300091162595" lon="13.348954931424">
        <ele>86.6</ele>
        <time>2019-11-17T12:16:53Z</time>
      </trkpt>
      <trkpt lat="56.300146147859" lon="13.349063309391">
        <ele>85.8</ele>
        <time>2019-11-17T12:16:56Z</time>
      </trkpt>
      <trkpt lat="56.300182190029" lon="13.349113181696">
        <ele>84.6</ele>
        <time>2019-11-17T12:16:58Z</time>
      </trkpt>
      <trkpt lat="56.300269445608" lon="13.349204879682">
        <ele>83.6</ele>
        <time>2019-11-17T12:17:01Z</time>
      </trkpt>
      <trkpt lat="56.300317641533" lon="13.349275874375">
        <ele>83.4</ele>
        <time>2019-11-17T12:17:05Z</time>
      </trkpt>
      <trkpt lat="56.300396766669" lon="13.349341085557">
        <ele>84.4</ele>
        <time>2019-11-17T12:17:09Z</time>
      </trkpt>
      <trkpt lat="56.30040674113" lon="13.34934418686">
        <ele>84.8</ele>
        <time>2019-11-17T12:17:10Z</time>
      </trkpt>
      <trkpt lat="56.300473041959" lon="13.349378720288">
        <ele>86</ele>
        <time>2019-11-17T12:17:13Z</time>
      </trkpt>
      <trkpt lat="56.300534732743" lon="13.349437477407">
        <ele>87</ele>
        <time>2019-11-17T12:17:17Z</time>
      </trkpt>
      <trkpt lat="56.300649061859" lon="13.349586591408">
        <ele>87.2</ele>
        <time>2019-11-17T12:17:22Z</time>
      </trkpt>
      <trkpt lat="56.300822818646" lon="13.349778201642">
        <ele>87</ele>
        <time>2019-11-17T12:17:30Z</time>
      </trkpt>
      <trkpt lat="56.300998167994" lon="13.349876940424">
        <ele>87.2</ele>
        <time>2019-11-17T12:17:37Z</time>
      </trkpt>
      <trkpt lat="56.301165051623" lon="13.349737884703">
        <ele>86.8</ele>
        <time>2019-11-17T12:17:44Z</time>
      </trkpt>
      <trkpt lat="56.301309555579" lon="13.349663201974">
        <ele>86.6</ele>
        <time>2019-11-17T12:17:51Z</time>
      </trkpt>
      <trkpt lat="56.301378873892" lon="13.349664207802">
        <ele>86</ele>
        <time>2019-11-17T12:17:55Z</time>
      </trkpt>
      <trkpt lat="56.301419861383" lon="13.349648366011">
        <ele>85.8</ele>
        <time>2019-11-17T12:17:58Z</time>
      </trkpt>
      <trkpt lat="56.3014402294" lon="13.349636044618">
        <ele>85.6</ele>
        <time>2019-11-17T12:17:59Z</time>
      </trkpt>
      <trkpt lat="56.301523545486" lon="13.349590027987">
        <ele>85.6</ele>
        <time>2019-11-17T12:18:02Z</time>
      </trkpt>
      <trkpt lat="56.301599569319" lon="13.349458348338">
        <ele>84.8</ele>
        <time>2019-11-17T12:18:07Z</time>
      </trkpt>
      <trkpt lat="56.301620607888" lon="13.349444518203">
        <ele>84.6</ele>
        <time>2019-11-17T12:18:08Z</time>
      </trkpt>
      <trkpt lat="56.301653381117" lon="13.349413253716">
        <ele>84.4</ele>
        <time>2019-11-17T12:18:10Z</time>
      </trkpt>
      <trkpt lat="56.301717837928" lon="13.349358687547">
        <ele>84.2</ele>
        <time>2019-11-17T12:18:14Z</time>
      </trkpt>
      <trkpt lat="56.301743067447" lon="13.349331362553">
        <ele>84.4</ele>
        <time>2019-11-17T12:18:16Z</time>
      </trkpt>
      <trkpt lat="56.301802159842" lon="13.349266905742">
        <ele>85.4</ele>
        <time>2019-11-17T12:18:20Z</time>
      </trkpt>
      <trkpt lat="56.301814481235" lon="13.349234216332">
        <ele>85.8</ele>
        <time>2019-11-17T12:18:21Z</time>
      </trkpt>
      <trkpt lat="56.301838788745" lon="13.349208986813">
        <ele>86.6</ele>
        <time>2019-11-17T12:18:23Z</time>
      </trkpt>
      <trkpt lat="56.301850271948" lon="13.349193228841">
        <ele>87.2</ele>
        <time>2019-11-17T12:18:24Z</time>
      </trkpt>
      <trkpt lat="56.30187860277" lon="13.349161293802">
        <ele>87.8</ele>
        <time>2019-11-17T12:18:26Z</time>
      </trkpt>
      <trkpt lat="56.301961835037" lon="13.34908015701">
        <ele>88</ele>
        <time>2019-11-17T12:18:30Z</time>
      </trkpt>
      <trkpt lat="56.301974491706" lon="13.349086191978">
        <ele>87.8</ele>
        <time>2019-11-17T12:18:31Z</time>
      </trkpt>
      <trkpt lat="56.302011623523" lon="13.349070685463">
        <ele>87.4</ele>
        <time>2019-11-17T12:18:34Z</time>
      </trkpt>
      <trkpt lat="56.302048671521" lon="13.349127766202">
        <ele>87.4</ele>
        <time>2019-11-17T12:18:38Z</time>
      </trkpt>
      <trkpt lat="56.302063507484" lon="13.349226924079">
        <ele>87.6</ele>
        <time>2019-11-17T12:18:41Z</time>
      </trkpt>
      <trkpt lat="56.302089072279" lon="13.349371930949">
        <ele>88.4</ele>
        <time>2019-11-17T12:18:45Z</time>
      </trkpt>
      <trkpt lat="56.302128718666" lon="13.349526409366">
        <ele>89</ele>
        <time>2019-11-17T12:18:50Z</time>
      </trkpt>
      <trkpt lat="56.302157133307" lon="13.349620454284">
        <ele>87.8</ele>
        <time>2019-11-17T12:18:53Z</time>
      </trkpt>
      <trkpt lat="56.302167526863" lon="13.349694466461">
        <ele>87.4</ele>
        <time>2019-11-17T12:18:55Z</time>
      </trkpt>
      <trkpt lat="56.302167191587" lon="13.349778704556">
        <ele>86.2</ele>
        <time>2019-11-17T12:18:57Z</time>
      </trkpt>
      <trkpt lat="56.302183452473" lon="13.349870234904">
        <ele>85.8</ele>
        <time>2019-11-17T12:18:59Z</time>
      </trkpt>
      <trkpt lat="56.302212872942" lon="13.350079028033">
        <ele>85.8</ele>
        <time>2019-11-17T12:19:04Z</time>
      </trkpt>
      <trkpt lat="56.302221590118" lon="13.350457973732">
        <ele>85.6</ele>
        <time>2019-11-17T12:19:14Z</time>
      </trkpt>
      <trkpt lat="56.302232402769" lon="13.350549001166">
        <ele>85.6</ele>
        <time>2019-11-17T12:19:16Z</time>
      </trkpt>
      <trkpt lat="56.302225361973" lon="13.350629048311">
        <ele>85.6</ele>
        <time>2019-11-17T12:19:18Z</time>
      </trkpt>
      <trkpt lat="56.302197198789" lon="13.350776905027">
        <ele>85.8</ele>
        <time>2019-11-17T12:19:22Z</time>
      </trkpt>
      <trkpt lat="56.302192002011" lon="13.350970610736">
        <ele>86</ele>
        <time>2019-11-17T12:19:28Z</time>
      </trkpt>
      <trkpt lat="56.302163335913" lon="13.351039426135">
        <ele>86</ele>
        <time>2019-11-17T12:19:30Z</time>
      </trkpt>
      <trkpt lat="56.30214766176" lon="13.35117563201">
        <ele>87.4</ele>
        <time>2019-11-17T12:19:34Z</time>
      </trkpt>
      <trkpt lat="56.302126204096" lon="13.351252829309">
        <ele>88.4</ele>
        <time>2019-11-17T12:19:36Z</time>
      </trkpt>
      <trkpt lat="56.30209988493" lon="13.351443517534">
        <ele>89.6</ele>
        <time>2019-11-17T12:19:41Z</time>
      </trkpt>
      <trkpt lat="56.302085887157" lon="13.351554577709">
        <ele>90.8</ele>
        <time>2019-11-17T12:19:44Z</time>
      </trkpt>
      <trkpt lat="56.302025537477" lon="13.351879292515">
        <ele>91</ele>
        <time>2019-11-17T12:19:53Z</time>
      </trkpt>
      <trkpt lat="56.301956470621" lon="13.352211802488">
        <ele>91.8</ele>
        <time>2019-11-17T12:20:00Z</time>
      </trkpt>
      <trkpt lat="56.301921937193" lon="13.352545402108">
        <ele>92.6</ele>
        <time>2019-11-17T12:20:08Z</time>
      </trkpt>
      <trkpt lat="56.301924535582" lon="13.352583539753">
        <ele>92.8</ele>
        <time>2019-11-17T12:20:09Z</time>
      </trkpt>
      <trkpt lat="56.301943478676" lon="13.352659647405">
        <ele>93.8</ele>
        <time>2019-11-17T12:20:13Z</time>
      </trkpt>
      <trkpt lat="56.301951441481" lon="13.352705915493">
        <ele>94.8</ele>
        <time>2019-11-17T12:20:15Z</time>
      </trkpt>
      <trkpt lat="56.30195739263" lon="13.352761906585">
        <ele>96.2</ele>
        <time>2019-11-17T12:20:17Z</time>
      </trkpt>
      <trkpt lat="56.301948926911" lon="13.352822926817">
        <ele>97.2</ele>
        <time>2019-11-17T12:20:19Z</time>
      </trkpt>
      <trkpt lat="56.301956135345" lon="13.352987128238">
        <ele>98.4</ele>
        <time>2019-11-17T12:20:23Z</time>
      </trkpt>
      <trkpt lat="56.302014138093" lon="13.353101289716">
        <ele>99.4</ele>
        <time>2019-11-17T12:20:28Z</time>
      </trkpt>
      <trkpt lat="56.302030147522" lon="13.353116544774">
        <ele>99.4</ele>
        <time>2019-11-17T12:20:29Z</time>
      </trkpt>
      <trkpt lat="56.302154618737" lon="13.353273705399">
        <ele>98.2</ele>
        <time>2019-11-17T12:20:37Z</time>
      </trkpt>
      <trkpt lat="56.30222896619" lon="13.353464980357">
        <ele>97</ele>
        <time>2019-11-17T12:20:43Z</time>
      </trkpt>
      <trkpt lat="56.302314126294" lon="13.353597833472">
        <ele>97.2</ele>
        <time>2019-11-17T12:20:50Z</time>
      </trkpt>
      <trkpt lat="56.302433987464" lon="13.353835627975">
        <ele>97.6</ele>
        <time>2019-11-17T12:21:00Z</time>
      </trkpt>
      <trkpt lat="56.30248545233" lon="13.353878878579">
        <ele>97.8</ele>
        <time>2019-11-17T12:21:04Z</time>
      </trkpt>
      <trkpt lat="56.302567930226" lon="13.353913747283">
        <ele>98.2</ele>
        <time>2019-11-17T12:21:09Z</time>
      </trkpt>
      <trkpt lat="56.302593327383" lon="13.353913579645">
        <ele>98.4</ele>
        <time>2019-11-17T12:21:11Z</time>
      </trkpt>
      <trkpt lat="56.302617215798" lon="13.353909556333">
        <ele>99</ele>
        <time>2019-11-17T12:21:13Z</time>
      </trkpt>
      <trkpt lat="56.302631129752" lon="13.353913244369">
        <ele>99.2</ele>
        <time>2019-11-17T12:21:14Z</time>
      </trkpt>
      <trkpt lat="56.302661639868" lon="13.353909137238">
        <ele>99.6</ele>
        <time>2019-11-17T12:21:16Z</time>
      </trkpt>
      <trkpt lat="56.302672536338" lon="13.353851721223">
        <ele>100.2</ele>
        <time>2019-11-17T12:21:19Z</time>
      </trkpt>
      <trkpt lat="56.302676727288" lon="13.35383185612">
        <ele>100.4</ele>
        <time>2019-11-17T12:21:20Z</time>
      </trkpt>
      <trkpt lat="56.302685444464" lon="13.353789695163">
        <ele>100.2</ele>
        <time>2019-11-17T12:21:22Z</time>
      </trkpt>
      <trkpt lat="56.302685947378" lon="13.353754155907">
        <ele>99.6</ele>
        <time>2019-11-17T12:21:25Z</time>
      </trkpt>
      <trkpt lat="56.302711260716" lon="13.353777457589">
        <ele>99.2</ele>
        <time>2019-11-17T12:21:28Z</time>
      </trkpt>
      <trkpt lat="56.302851238446" lon="13.354001421957">
        <ele>99</ele>
        <time>2019-11-17T12:21:36Z</time>
      </trkpt>
      <trkpt lat="56.302996664411" lon="13.354246843989">
        <ele>98</ele>
        <time>2019-11-17T12:21:43Z</time>
      </trkpt>
      <trkpt lat="56.303054918616" lon="13.354366705159">
        <ele>97</ele>
        <time>2019-11-17T12:21:47Z</time>
      </trkpt>
      <trkpt lat="56.303064306344" lon="13.354377350172">
        <ele>96.6</ele>
        <time>2019-11-17T12:21:48Z</time>
      </trkpt>
      <trkpt lat="56.303082746524" lon="13.354404507528">
        <ele>95.8</ele>
        <time>2019-11-17T12:21:50Z</time>
      </trkpt>
      <trkpt lat="56.303086518379" lon="13.354427893029">
        <ele>95.8</ele>
        <time>2019-11-17T12:21:51Z</time>
      </trkpt>
      <trkpt lat="56.303115184477" lon="13.354534594616">
        <ele>94.8</ele>
        <time>2019-11-17T12:21:54Z</time>
      </trkpt>
      <trkpt lat="56.303162206936" lon="13.354856711033">
        <ele>94.2</ele>
        <time>2019-11-17T12:22:03Z</time>
      </trkpt>
      <trkpt lat="56.303168912456" lon="13.354919910559">
        <ele>93.8</ele>
        <time>2019-11-17T12:22:04Z</time>
      </trkpt>
      <trkpt lat="56.303192465595" lon="13.355010937993">
        <ele>93.6</ele>
        <time>2019-11-17T12:22:07Z</time>
      </trkpt>
      <trkpt lat="56.303257760596" lon="13.35509584664">
        <ele>93.4</ele>
        <time>2019-11-17T12:22:13Z</time>
      </trkpt>
      <trkpt lat="56.303259856071" lon="13.355158962347">
        <ele>92.6</ele>
        <time>2019-11-17T12:22:16Z</time>
      </trkpt>
      <trkpt lat="56.303255497483" lon="13.355187796083">
        <ele>92.4</ele>
        <time>2019-11-17T12:22:18Z</time>
      </trkpt>
      <trkpt lat="56.30325993989" lon="13.355218725294">
        <ele>91.8</ele>
        <time>2019-11-17T12:22:21Z</time>
      </trkpt>
      <trkpt lat="56.303264549935" lon="13.355230040859">
        <ele>91.4</ele>
        <time>2019-11-17T12:22:22Z</time>
      </trkpt>
      <trkpt lat="56.303299921553" lon="13.355308160167">
        <ele>90.4</ele>
        <time>2019-11-17T12:22:26Z</time>
      </trkpt>
      <trkpt lat="56.303322468864" lon="13.355341520129">
        <ele>90.2</ele>
        <time>2019-11-17T12:22:27Z</time>
      </trkpt>
      <trkpt lat="56.303362785803" lon="13.355410419347">
        <ele>89.6</ele>
        <time>2019-11-17T12:22:30Z</time>
      </trkpt>
      <trkpt lat="56.303392793005" lon="13.355430955002">
        <ele>89.2</ele>
        <time>2019-11-17T12:22:32Z</time>
      </trkpt>
      <trkpt lat="56.303449706106" lon="13.355467080991">
        <ele>89.2</ele>
        <time>2019-11-17T12:22:35Z</time>
      </trkpt>
      <trkpt lat="56.303489268674" lon="13.355508822853">
        <ele>89.2</ele>
        <time>2019-11-17T12:22:38Z</time>
      </trkpt>
      <trkpt lat="56.303529250337" lon="13.355548720697">
        <ele>89.4</ele>
        <time>2019-11-17T12:22:40Z</time>
      </trkpt>
      <trkpt lat="56.303583816506" lon="13.355592306577">
        <ele>89.8</ele>
        <time>2019-11-17T12:22:42Z</time>
      </trkpt>
      <trkpt lat="56.303628911128" lon="13.35560798073">
        <ele>90.6</ele>
        <time>2019-11-17T12:22:44Z</time>
      </trkpt>
      <trkpt lat="56.303696888337" lon="13.355626588548">
        <ele>92</ele>
        <time>2019-11-17T12:22:47Z</time>
      </trkpt>
      <trkpt lat="56.303778192767" lon="13.355678053414">
        <ele>92.6</ele>
        <time>2019-11-17T12:22:51Z</time>
      </trkpt>
      <trkpt lat="56.303957565427" lon="13.355790119417">
        <ele>92.2</ele>
        <time>2019-11-17T12:22:59Z</time>
      </trkpt>
      <trkpt lat="56.304148002195" lon="13.355816103307">
        <ele>93</ele>
        <time>2019-11-17T12:23:06Z</time>
      </trkpt>
      <trkpt lat="56.304184631098" lon="13.355801770258">
        <ele>92</ele>
        <time>2019-11-17T12:23:08Z</time>
      </trkpt>
      <trkpt lat="56.304201311079" lon="13.355806547941">
        <ele>91.6</ele>
        <time>2019-11-17T12:23:09Z</time>
      </trkpt>
      <trkpt lat="56.304221511458" lon="13.355837393333">
        <ele>90.8</ele>
        <time>2019-11-17T12:23:11Z</time>
      </trkpt>
      <trkpt lat="56.304257888904" lon="13.356008216455">
        <ele>90.8</ele>
        <time>2019-11-17T12:23:15Z</time>
      </trkpt>
      <trkpt lat="56.30429594273" lon="13.35605892695">
        <ele>91.4</ele>
        <time>2019-11-17T12:23:17Z</time>
      </trkpt>
      <trkpt lat="56.304385042327" lon="13.35622907952">
        <ele>90.4</ele>
        <time>2019-11-17T12:23:22Z</time>
      </trkpt>
      <trkpt lat="56.304428460569" lon="13.356323543533">
        <ele>89.2</ele>
        <time>2019-11-17T12:23:25Z</time>
      </trkpt>
      <trkpt lat="56.304435166089" lon="13.35634223517">
        <ele>88.8</ele>
        <time>2019-11-17T12:23:26Z</time>
      </trkpt>
      <trkpt lat="56.304460563246" lon="13.356397807167">
        <ele>88.2</ele>
        <time>2019-11-17T12:23:28Z</time>
      </trkpt>
      <trkpt lat="56.304568270661" lon="13.356664854501">
        <ele>87.4</ele>
        <time>2019-11-17T12:23:34Z</time>
      </trkpt>
      <trkpt lat="56.304579586226" lon="13.356706596363">
        <ele>87</ele>
        <time>2019-11-17T12:23:35Z</time>
      </trkpt>
      <trkpt lat="56.304577826027" lon="13.356982696149">
        <ele>86</ele>
        <time>2019-11-17T12:23:40Z</time>
      </trkpt>
      <trkpt lat="56.304545974807" lon="13.357053271747">
        <ele>85.8</ele>
        <time>2019-11-17T12:23:42Z</time>
      </trkpt>
      <trkpt lat="56.304489983715" lon="13.357178413514">
        <ele>85.2</ele>
        <time>2019-11-17T12:23:46Z</time>
      </trkpt>
      <trkpt lat="56.304489899896" lon="13.357197272789">
        <ele>84.6</ele>
        <time>2019-11-17T12:23:47Z</time>
      </trkpt>
      <trkpt lat="56.304454947373" lon="13.357314200294">
        <ele>83.6</ele>
        <time>2019-11-17T12:23:51Z</time>
      </trkpt>
      <trkpt lat="56.304431226596" lon="13.357433307093">
        <ele>85</ele>
        <time>2019-11-17T12:23:56Z</time>
      </trkpt>
      <trkpt lat="56.304413121692" lon="13.357481503018">
        <ele>86.2</ele>
        <time>2019-11-17T12:23:58Z</time>
      </trkpt>
      <trkpt lat="56.304397531358" lon="13.357527938744">
        <ele>87.6</ele>
        <time>2019-11-17T12:24:00Z</time>
      </trkpt>
      <trkpt lat="56.30440239286" lon="13.357561298706">
        <ele>88.8</ele>
        <time>2019-11-17T12:24:03Z</time>
      </trkpt>
      <trkpt lat="56.304405661801" lon="13.357614439952">
        <ele>89.8</ele>
        <time>2019-11-17T12:24:09Z</time>
      </trkpt>
      <trkpt lat="56.304402309041" lon="13.357617792712">
        <ele>90</ele>
        <time>2019-11-17T12:24:10Z</time>
      </trkpt>
      <trkpt lat="56.304391747847" lon="13.357637406358">
        <ele>91</ele>
        <time>2019-11-17T12:24:13Z</time>
      </trkpt>
      <trkpt lat="56.304390993476" lon="13.357661797687">
        <ele>92</ele>
        <time>2019-11-17T12:24:15Z</time>
      </trkpt>
      <trkpt lat="56.304391580209" lon="13.357704042463">
        <ele>92.6</ele>
        <time>2019-11-17T12:24:17Z</time>
      </trkpt>
      <trkpt lat="56.30440323105" lon="13.357747544524">
        <ele>93.2</ele>
        <time>2019-11-17T12:24:19Z</time>
      </trkpt>
      <trkpt lat="56.304401387032" lon="13.357782580866">
        <ele>93.4</ele>
        <time>2019-11-17T12:24:20Z</time>
      </trkpt>
      <trkpt lat="56.304398285729" lon="13.3578316988">
        <ele>93.8</ele>
        <time>2019-11-17T12:24:22Z</time>
      </trkpt>
      <trkpt lat="56.304405829439" lon="13.357883918037">
        <ele>94.2</ele>
        <time>2019-11-17T12:24:25Z</time>
      </trkpt>
      <trkpt lat="56.304411780588" lon="13.357909399013">
        <ele>94.4</ele>
        <time>2019-11-17T12:24:26Z</time>
      </trkpt>
      <trkpt lat="56.304407422" lon="13.358027667622">
        <ele>94.8</ele>
        <time>2019-11-17T12:24:30Z</time>
      </trkpt>
      <trkpt lat="56.304379845549" lon="13.358143337842">
        <ele>95.2</ele>
        <time>2019-11-17T12:24:34Z</time>
      </trkpt>
      <trkpt lat="56.304379594092" lon="13.358184828247">
        <ele>95.2</ele>
        <time>2019-11-17T12:24:35Z</time>
      </trkpt>
      <trkpt lat="56.304467939318" lon="13.358369230047">
        <ele>94.2</ele>
        <time>2019-11-17T12:24:49Z</time>
      </trkpt>
      <trkpt lat="56.304501215461" lon="13.358398482878">
        <ele>93</ele>
        <time>2019-11-17T12:24:51Z</time>
      </trkpt>
      <trkpt lat="56.304509513542" lon="13.358410636633">
        <ele>92.2</ele>
        <time>2019-11-17T12:24:52Z</time>
      </trkpt>
      <trkpt lat="56.304518398356" lon="13.358415749592">
        <ele>91.2</ele>
        <time>2019-11-17T12:24:53Z</time>
      </trkpt>
      <trkpt lat="56.304541113305" lon="13.358429747365">
        <ele>89.6</ele>
        <time>2019-11-17T12:24:55Z</time>
      </trkpt>
      <trkpt lat="56.304549662843" lon="13.358458245825">
        <ele>89</ele>
        <time>2019-11-17T12:24:57Z</time>
      </trkpt>
      <trkpt lat="56.304577490751" lon="13.358560337367">
        <ele>89</ele>
        <time>2019-11-17T12:25:01Z</time>
      </trkpt>
      <trkpt lat="56.304635661137" lon="13.358680617632">
        <ele>88</ele>
        <time>2019-11-17T12:25:05Z</time>
      </trkpt>
      <trkpt lat="56.304668769642" lon="13.35872604753">
        <ele>86</ele>
        <time>2019-11-17T12:25:07Z</time>
      </trkpt>
      <trkpt lat="56.304682264501" lon="13.358771142152">
        <ele>85</ele>
        <time>2019-11-17T12:25:08Z</time>
      </trkpt>
      <trkpt lat="56.304708164572" lon="13.358903911448">
        <ele>83.8</ele>
        <time>2019-11-17T12:25:11Z</time>
      </trkpt>
      <trkpt lat="56.30472677239" lon="13.358957471789">
        <ele>83.6</ele>
        <time>2019-11-17T12:25:13Z</time>
      </trkpt>
      <trkpt lat="56.304747559502" lon="13.359001476764">
        <ele>83.8</ele>
        <time>2019-11-17T12:25:15Z</time>
      </trkpt>
      <trkpt lat="56.304844621904" lon="13.35932619157">
        <ele>84.4</ele>
        <time>2019-11-17T12:25:24Z</time>
      </trkpt>
      <trkpt lat="56.304848561397" lon="13.359351085813">
        <ele>84.4</ele>
        <time>2019-11-17T12:25:25Z</time>
      </trkpt>
      <trkpt lat="56.304810256114" lon="13.359778227437">
        <ele>83.6</ele>
        <time>2019-11-17T12:25:33Z</time>
      </trkpt>
      <trkpt lat="56.304760886723" lon="13.359855676193">
        <ele>84.2</ele>
        <time>2019-11-17T12:25:39Z</time>
      </trkpt>
      <trkpt lat="56.304719144861" lon="13.359898172426">
        <ele>84.8</ele>
        <time>2019-11-17T12:25:43Z</time>
      </trkpt>
      <trkpt lat="56.304677486818" lon="13.359936142433">
        <ele>84.8</ele>
        <time>2019-11-17T12:25:45Z</time>
      </trkpt>
      <trkpt lat="56.304656196792" lon="13.359918540443">
        <ele>84.8</ele>
        <time>2019-11-17T12:25:46Z</time>
      </trkpt>
      <trkpt lat="56.304481350358" lon="13.35985928041">
        <ele>85.6</ele>
        <time>2019-11-17T12:25:53Z</time>
      </trkpt>
      <trkpt lat="56.304431561872" lon="13.359883001187">
        <ele>86</ele>
        <time>2019-11-17T12:25:55Z</time>
      </trkpt>
      <trkpt lat="56.304254955239" lon="13.360000012511">
        <ele>86.8</ele>
        <time>2019-11-17T12:26:01Z</time>
      </trkpt>
      <trkpt lat="56.304228803711" lon="13.360033540111">
        <ele>87.2</ele>
        <time>2019-11-17T12:26:02Z</time>
      </trkpt>
      <trkpt lat="56.304100560641" lon="13.360220707938">
        <ele>88.2</ele>
        <time>2019-11-17T12:26:06Z</time>
      </trkpt>
      <trkpt lat="56.303955553771" lon="13.360450707274">
        <ele>87.2</ele>
        <time>2019-11-17T12:26:11Z</time>
      </trkpt>
      <trkpt lat="56.303801829725" lon="13.360713815115">
        <ele>86.2</ele>
        <time>2019-11-17T12:26:17Z</time>
      </trkpt>
      <trkpt lat="56.303696050147" lon="13.360989244349">
        <ele>85.8</ele>
        <time>2019-11-17T12:26:23Z</time>
      </trkpt>
      <trkpt lat="56.303628240576" lon="13.361266014687">
        <ele>85.2</ele>
        <time>2019-11-17T12:26:29Z</time>
      </trkpt>
      <trkpt lat="56.303551294734" lon="13.361585365077">
        <ele>84.8</ele>
        <time>2019-11-17T12:26:37Z</time>
      </trkpt>
      <trkpt lat="56.30347870748" lon="13.361624257093">
        <ele>84.6</ele>
        <time>2019-11-17T12:26:40Z</time>
      </trkpt>
      <trkpt lat="56.303427745528" lon="13.361587376733">
        <ele>84</ele>
        <time>2019-11-17T12:26:42Z</time>
      </trkpt>
      <trkpt lat="56.303387009494" lon="13.361513783651">
        <ele>82.6</ele>
        <time>2019-11-17T12:26:44Z</time>
      </trkpt>
      <trkpt lat="56.303280559364" lon="13.361387719875">
        <ele>82.4</ele>
        <time>2019-11-17T12:26:50Z</time>
      </trkpt>
      <trkpt lat="56.303248791963" lon="13.36135544956">
        <ele>82.8</ele>
        <time>2019-11-17T12:26:53Z</time>
      </trkpt>
      <trkpt lat="56.303222556616" lon="13.361312366594">
        <ele>83.2</ele>
        <time>2019-11-17T12:26:57Z</time>
      </trkpt>
      <trkpt lat="56.303205876635" lon="13.361208263396">
        <ele>82.8</ele>
        <time>2019-11-17T12:27:03Z</time>
      </trkpt>
      <trkpt lat="56.303201015133" lon="13.361126875147">
        <ele>83.6</ele>
        <time>2019-11-17T12:27:06Z</time>
      </trkpt>
      <trkpt lat="56.303200093124" lon="13.361110865718">
        <ele>84.2</ele>
        <time>2019-11-17T12:27:07Z</time>
      </trkpt>
      <trkpt lat="56.3032004284" lon="13.361057808291">
        <ele>85.4</ele>
        <time>2019-11-17T12:27:09Z</time>
      </trkpt>
      <trkpt lat="56.303184586609" lon="13.361026543804">
        <ele>86</ele>
        <time>2019-11-17T12:27:10Z</time>
      </trkpt>
      <trkpt lat="56.303186598265" lon="13.360996368964">
        <ele>86.6</ele>
        <time>2019-11-17T12:27:11Z</time>
      </trkpt>
      <trkpt lat="56.303181401487" lon="13.36098077863">
        <ele>87.8</ele>
        <time>2019-11-17T12:27:13Z</time>
      </trkpt>
      <trkpt lat="56.303164805325" lon="13.36101849718">
        <ele>87.8</ele>
        <time>2019-11-17T12:27:18Z</time>
      </trkpt>
      <trkpt lat="56.303144604946" lon="13.361054120255">
        <ele>86.6</ele>
        <time>2019-11-17T12:27:21Z</time>
      </trkpt>
      <trkpt lat="56.303139408168" lon="13.361193427433">
        <ele>85.4</ele>
        <time>2019-11-17T12:27:25Z</time>
      </trkpt>
      <trkpt lat="56.303146197507" lon="13.361259476805">
        <ele>84.2</ele>
        <time>2019-11-17T12:27:27Z</time>
      </trkpt>
      <trkpt lat="56.303138821435" lon="13.361335752095">
        <ele>83</ele>
        <time>2019-11-17T12:27:30Z</time>
      </trkpt>
      <trkpt lat="56.303297742259" lon="13.36155410059">
        <ele>82.2</ele>
        <time>2019-11-17T12:27:37Z</time>
      </trkpt>
      <trkpt lat="56.303469738847" lon="13.3617460461">
        <ele>83</ele>
        <time>2019-11-17T12:27:43Z</time>
      </trkpt>
      <trkpt lat="56.303626983291" lon="13.361916785403">
        <ele>82.8</ele>
        <time>2019-11-17T12:27:47Z</time>
      </trkpt>
      <trkpt lat="56.303722788408" lon="13.362191376447">
        <ele>82.2</ele>
        <time>2019-11-17T12:27:52Z</time>
      </trkpt>
      <trkpt lat="56.303631174241" lon="13.362503434584">
        <ele>82.2</ele>
        <time>2019-11-17T12:27:58Z</time>
      </trkpt>
      <trkpt lat="56.303526819586" lon="13.362800405301">
        <ele>82.2</ele>
        <time>2019-11-17T12:28:03Z</time>
      </trkpt>
      <trkpt lat="56.303367144391" lon="13.363044737686">
        <ele>82.8</ele>
        <time>2019-11-17T12:28:08Z</time>
      </trkpt>
      <trkpt lat="56.30319288469" lon="13.363220589948">
        <ele>82.6</ele>
        <time>2019-11-17T12:28:14Z</time>
      </trkpt>
      <trkpt lat="56.303029102364" lon="13.363469700016">
        <ele>83</ele>
        <time>2019-11-17T12:28:21Z</time>
      </trkpt>
      <trkpt lat="56.302938996939" lon="13.363749655476">
        <ele>83</ele>
        <time>2019-11-17T12:28:27Z</time>
      </trkpt>
      <trkpt lat="56.302989288339" lon="13.364116531239">
        <ele>83</ele>
        <time>2019-11-17T12:28:34Z</time>
      </trkpt>
      <trkpt lat="56.303046117621" lon="13.364417022354">
        <ele>83</ele>
        <time>2019-11-17T12:28:41Z</time>
      </trkpt>
      <trkpt lat="56.303069251665" lon="13.36443244505">
        <ele>83</ele>
        <time>2019-11-17T12:28:43Z</time>
      </trkpt>
      <trkpt lat="56.303139408168" lon="13.364514671489">
        <ele>83</ele>
        <time>2019-11-17T12:28:47Z</time>
      </trkpt>
      <trkpt lat="56.303286091418" lon="13.364763865376">
        <ele>83</ele>
        <time>2019-11-17T12:28:54Z</time>
      </trkpt>
      <trkpt lat="56.303306207978" lon="13.364779539529">
        <ele>82.8</ele>
        <time>2019-11-17T12:28:55Z</time>
      </trkpt>
      <trkpt lat="56.303313751688" lon="13.364912141187">
        <ele>82.6</ele>
        <time>2019-11-17T12:28:59Z</time>
      </trkpt>
      <trkpt lat="56.303304531598" lon="13.365074917685">
        <ele>82.6</ele>
        <time>2019-11-17T12:29:02Z</time>
      </trkpt>
      <trkpt lat="56.303380220155" lon="13.365401727966">
        <ele>83</ele>
        <time>2019-11-17T12:29:07Z</time>
      </trkpt>
      <trkpt lat="56.303459010015" lon="13.365695262104">
        <ele>83.2</ele>
        <time>2019-11-17T12:29:11Z</time>
      </trkpt>
      <trkpt lat="56.303546181775" lon="13.366013019933">
        <ele>83.4</ele>
        <time>2019-11-17T12:29:16Z</time>
      </trkpt>
      <trkpt lat="56.303606782912" lon="13.366357935118">
        <ele>83</ele>
        <time>2019-11-17T12:29:21Z</time>
      </trkpt>
      <trkpt lat="56.303630503689" lon="13.366602183684">
        <ele>83.4</ele>
        <time>2019-11-17T12:29:25Z</time>
      </trkpt>
      <trkpt lat="56.303658163959" lon="13.366627748479">
        <ele>83.6</ele>
        <time>2019-11-17T12:29:27Z</time>
      </trkpt>
      <trkpt lat="56.303721866399" lon="13.367003425237">
        <ele>83.8</ele>
        <time>2019-11-17T12:29:33Z</time>
      </trkpt>
      <trkpt lat="56.30385337841" lon="13.367204926113">
        <ele>84.2</ele>
        <time>2019-11-17T12:29:38Z</time>
      </trkpt>
      <trkpt lat="56.304041049151" lon="13.367337360133">
        <ele>84.4</ele>
        <time>2019-11-17T12:29:43Z</time>
      </trkpt>
      <trkpt lat="56.304223355476" lon="13.367497873518">
        <ele>84.8</ele>
        <time>2019-11-17T12:29:48Z</time>
      </trkpt>
      <trkpt lat="56.30429091359" lon="13.367598121042">
        <ele>85.4</ele>
        <time>2019-11-17T12:29:50Z</time>
      </trkpt>
      <trkpt lat="56.304406080896" lon="13.367885368755">
        <ele>86.2</ele>
        <time>2019-11-17T12:29:54Z</time>
      </trkpt>
      <trkpt lat="56.30451471032" lon="13.368205808792">
        <ele>86</ele>
        <time>2019-11-17T12:29:58Z</time>
      </trkpt>
      <trkpt lat="56.304608922876" lon="13.36839540737">
        <ele>86.2</ele>
        <time>2019-11-17T12:30:01Z</time>
      </trkpt>
      <trkpt lat="56.30467815737" lon="13.368497247455">
        <ele>86.2</ele>
        <time>2019-11-17T12:30:03Z</time>
      </trkpt>
      <trkpt lat="56.304718139033" lon="13.368539743688">
        <ele>86.6</ele>
        <time>2019-11-17T12:30:04Z</time>
      </trkpt>
      <trkpt lat="56.304804975517" lon="13.368613504408">
        <ele>86.8</ele>
        <time>2019-11-17T12:30:07Z</time>
      </trkpt>
    </trkseg>
  </trk>
</gpx>